Check out our new PWSWeather beta!
PWSweather.com
Personal Weather Stations
Station Observations
DL5ARK
SonnebergDE

SonnebergDE

Lat: 50.34904861, Lon: 11.18112087

Elevation: 1214

Station Type: Selfmade

http://www.sumbarg.de

High Low Average
Temperature 41.6°F5.3°C 32.3°F0.2°C 35.6°F2.0°C
Dew Point 41.1°F5.1°C 35.3°F1.8°C 38.2°F3.4°C
Winds 5.7 mph 9.2 kmh Calm Calm Calm SWCalm SW
Wind Gusts 5.7 mph9.2 kmh -- --
Humidity 91% 74% 86%
Pressure 30.00 in1015.9 mb 29.53 in1000.0 mb -
Precipitation 0.22 in5.6 mm - -
Hour Temp Dew Point Humidity Winds Wind Gusts Pressure Precip Precip Rate Daily Precip Total
12:00 AM 33.8°F1.0°C 36.1°F2.3°C 84% Calm Calm -- 29.99 in1015.6 mb 0.00 in0.0 mm 0.00 in0.0 mm 0.04 in1.0 mm
12:03 AM 33.8°F1.0°C 36.3°F2.4°C 84% Calm Calm -- 29.99 in1015.6 mb 0.00 in0.0 mm 0.00 in0.0 mm 0.00 in0.0 mm
12:06 AM 33.8°F1.0°C 36.3°F2.4°C 84% Calm Calm -- 29.99 in1015.6 mb 0.00 in0.0 mm 0.00 in0.0 mm 0.00 in0.0 mm
12:09 AM 33.7°F0.9°C 36.3°F2.4°C 84% Calm Calm -- 29.99 in1015.6 mb 0.00 in0.0 mm 0.00 in0.0 mm 0.00 in0.0 mm
12:12 AM 33.7°F0.9°C 36.5°F2.5°C 84% Calm Calm -- 29.99 in1015.6 mb 0.00 in0.0 mm 0.00 in0.0 mm 0.00 in0.0 mm
12:15 AM 33.7°F0.9°C 36.1°F2.3°C 84% Calm Calm -- 29.99 in1015.6 mb 0.00 in0.0 mm 0.00 in0.0 mm 0.00 in0.0 mm
12:18 AM 33.4°F0.8°C 36.2°F2.3°C 84% Calm Calm -- 29.99 in1015.6 mb 0.00 in0.0 mm 0.00 in0.0 mm 0.00 in0.0 mm
12:21 AM 33.2°F0.7°C 36.1°F2.3°C 83% Calm Calm -- 29.99 in1015.6 mb 0.00 in0.0 mm 0.00 in0.0 mm 0.00 in0.0 mm
12:24 AM 33.0°F0.6°C 35.9°F2.2°C 83% Calm Calm -- 29.99 in1015.6 mb 0.00 in0.0 mm 0.00 in0.0 mm 0.00 in0.0 mm
12:27 AM 33.0°F0.6°C 36.2°F2.3°C 83% Calm Calm -- 29.99 in1015.6 mb 0.00 in0.0 mm 0.00 in0.0 mm 0.00 in0.0 mm
12:30 AM 33.1°F0.6°C 35.9°F2.2°C 84% Calm Calm -- 29.99 in1015.6 mb 0.00 in0.0 mm 0.00 in0.0 mm 0.00 in0.0 mm
12:33 AM 33.1°F0.6°C 35.8°F2.1°C 84% Calm Calm -- 29.99 in1015.6 mb 0.00 in0.0 mm 0.00 in0.0 mm 0.00 in0.0 mm
12:36 AM 33.2°F0.7°C 35.9°F2.2°C 84% Calm Calm -- 30.00 in1015.9 mb 0.00 in0.0 mm 0.00 in0.0 mm 0.00 in0.0 mm
12:39 AM 33.2°F0.7°C 36.0°F2.2°C 84% Calm Calm -- 30.00 in1015.9 mb 0.00 in0.0 mm 0.00 in0.0 mm 0.00 in0.0 mm
12:42 AM 33.2°F0.7°C 35.6°F2.0°C 83% Calm Calm -- 30.00 in1015.9 mb 0.00 in0.0 mm 0.00 in0.0 mm 0.00 in0.0 mm
12:45 AM 33.1°F0.6°C 35.9°F2.2°C 83% Calm Calm -- 30.00 in1015.9 mb 0.00 in0.0 mm 0.00 in0.0 mm 0.00 in0.0 mm
12:48 AM 33.1°F0.6°C 35.8°F2.1°C 84% Calm Calm -- 29.99 in1015.6 mb 0.00 in0.0 mm 0.00 in0.0 mm 0.00 in0.0 mm
12:51 AM 33.0°F0.6°C 36.0°F2.2°C 84% Calm Calm -- 30.00 in1015.9 mb 0.00 in0.0 mm 0.00 in0.0 mm 0.00 in0.0 mm
12:54 AM 32.9°F0.5°C 35.8°F2.1°C 84% Calm Calm -- 30.00 in1015.9 mb 0.00 in0.0 mm 0.00 in0.0 mm 0.00 in0.0 mm
12:57 AM 32.9°F0.5°C 36.0°F2.2°C 84% Calm Calm -- 30.00 in1015.9 mb 0.00 in0.0 mm 0.00 in0.0 mm 0.00 in0.0 mm
01:00 AM 32.9°F0.5°C 35.8°F2.1°C 84% Calm Calm -- 30.00 in1015.9 mb 0.00 in0.0 mm 0.00 in0.0 mm 0.00 in0.0 mm
01:03 AM 32.7°F0.4°C 35.8°F2.1°C 84% Calm Calm -- 30.00 in1015.9 mb 0.00 in0.0 mm 0.00 in0.0 mm 0.00 in0.0 mm
01:06 AM 32.7°F0.4°C 35.7°F2.1°C 84% Calm Calm -- 30.00 in1015.9 mb 0.00 in0.0 mm 0.00 in0.0 mm 0.00 in0.0 mm
01:09 AM 32.6°F0.3°C 35.4°F1.9°C 83% Calm Calm -- 29.99 in1015.6 mb 0.00 in0.0 mm 0.00 in0.0 mm 0.00 in0.0 mm
01:12 AM 32.6°F0.3°C 35.7°F2.1°C 84% Calm Calm -- 29.99 in1015.6 mb 0.00 in0.0 mm 0.00 in0.0 mm 0.00 in0.0 mm
01:15 AM 32.6°F0.3°C 35.8°F2.1°C 84% Calm Calm -- 29.99 in1015.6 mb 0.00 in0.0 mm 0.00 in0.0 mm 0.00 in0.0 mm
01:18 AM 32.7°F0.4°C 35.7°F2.1°C 84% Calm Calm -- 30.00 in1015.9 mb 0.00 in0.0 mm 0.00 in0.0 mm 0.00 in0.0 mm
01:21 AM 32.6°F0.3°C 35.8°F2.1°C 84% Calm Calm -- 29.99 in1015.6 mb 0.00 in0.0 mm 0.00 in0.0 mm 0.00 in0.0 mm
01:24 AM 32.7°F0.4°C 35.8°F2.1°C 84% Calm Calm -- 29.99 in1015.6 mb 0.00 in0.0 mm 0.00 in0.0 mm 0.00 in0.0 mm
01:27 AM 32.6°F0.3°C 35.9°F2.2°C 84% Calm Calm -- 30.00 in1015.9 mb 0.00 in0.0 mm 0.00 in0.0 mm 0.00 in0.0 mm
01:30 AM 32.7°F0.4°C 35.6°F2.0°C 84% Calm Calm -- 30.00 in1015.9 mb 0.00 in0.0 mm 0.00 in0.0 mm 0.00 in0.0 mm
01:33 AM 32.7°F0.4°C 35.5°F1.9°C 84% Calm Calm -- 30.00 in1015.9 mb 0.00 in0.0 mm 0.00 in0.0 mm 0.00 in0.0 mm
01:36 AM 32.7°F0.4°C 35.8°F2.1°C 84% Calm Calm -- 30.00 in1015.9 mb 0.00 in0.0 mm 0.00 in0.0 mm 0.00 in0.0 mm
01:39 AM 32.6°F0.3°C 35.7°F2.1°C 84% Calm Calm -- 30.00 in1015.9 mb 0.00 in0.0 mm 0.00 in0.0 mm 0.00 in0.0 mm
01:42 AM 32.6°F0.3°C 35.3°F1.8°C 83% Calm Calm -- 30.00 in1015.9 mb 0.00 in0.0 mm 0.00 in0.0 mm 0.00 in0.0 mm
01:45 AM 32.5°F0.3°C 35.7°F2.1°C 84% Calm Calm -- 30.00 in1015.9 mb 0.00 in0.0 mm 0.00 in0.0 mm 0.00 in0.0 mm
01:48 AM 32.6°F0.3°C 35.4°F1.9°C 84% Calm Calm -- 30.00 in1015.9 mb 0.00 in0.0 mm 0.00 in0.0 mm 0.00 in0.0 mm
01:51 AM 32.5°F0.3°C 35.6°F2.0°C 84% Calm Calm -- 30.00 in1015.9 mb 0.00 in0.0 mm 0.00 in0.0 mm 0.00 in0.0 mm
01:54 AM 32.3°F0.2°C 35.6°F2.0°C 84% Calm Calm -- 30.00 in1015.9 mb 0.00 in0.0 mm 0.00 in0.0 mm 0.00 in0.0 mm
01:57 AM 32.3°F0.2°C 35.7°F2.1°C 84% Calm Calm -- 30.00 in1015.9 mb 0.00 in0.0 mm 0.00 in0.0 mm 0.00 in0.0 mm
02:00 AM 32.3°F0.2°C 35.6°F2.0°C 84% Calm Calm -- 30.00 in1015.9 mb 0.00 in0.0 mm 0.00 in0.0 mm 0.00 in0.0 mm
02:03 AM 32.3°F0.2°C 35.7°F2.1°C 84% Calm Calm -- 30.00 in1015.9 mb 0.00 in0.0 mm 0.00 in0.0 mm 0.00 in0.0 mm
02:06 AM 32.3°F0.2°C 35.7°F2.1°C 84% Calm Calm -- 30.00 in1015.9 mb 0.00 in0.0 mm 0.00 in0.0 mm 0.00 in0.0 mm
02:09 AM 32.3°F0.2°C 35.8°F2.1°C 84% Calm Calm -- 30.00 in1015.9 mb 0.00 in0.0 mm 0.00 in0.0 mm 0.00 in0.0 mm
02:12 AM 32.6°F0.3°C 35.7°F2.1°C 84% Calm Calm -- 30.00 in1015.9 mb 0.00 in0.0 mm 0.00 in0.0 mm 0.00 in0.0 mm
02:15 AM 32.6°F0.3°C 35.8°F2.1°C 85% Calm Calm -- 30.00 in1015.9 mb 0.00 in0.0 mm 0.00 in0.0 mm 0.00 in0.0 mm
02:18 AM 32.7°F0.4°C 35.7°F2.1°C 85% Calm Calm -- 30.00 in1015.9 mb 0.00 in0.0 mm 0.00 in0.0 mm 0.00 in0.0 mm
02:21 AM 32.6°F0.3°C 35.6°F2.0°C 85% Calm Calm -- 30.00 in1015.9 mb 0.00 in0.0 mm 0.00 in0.0 mm 0.00 in0.0 mm
02:24 AM 32.7°F0.4°C 35.9°F2.2°C 85% Calm Calm -- 30.00 in1015.9 mb 0.00 in0.0 mm 0.00 in0.0 mm 0.00 in0.0 mm
02:27 AM 32.6°F0.3°C 35.7°F2.1°C 85% Calm Calm -- 30.00 in1015.9 mb 0.00 in0.0 mm 0.00 in0.0 mm 0.00 in0.0 mm
02:30 AM 32.6°F0.3°C 35.8°F2.1°C 85% Calm Calm -- 30.00 in1015.9 mb 0.00 in0.0 mm 0.00 in0.0 mm 0.00 in0.0 mm
02:33 AM 32.6°F0.3°C 35.8°F2.1°C 85% Calm Calm -- 30.00 in1015.9 mb 0.00 in0.0 mm 0.00 in0.0 mm 0.00 in0.0 mm
02:36 AM 32.6°F0.3°C 35.9°F2.2°C 85% Calm Calm -- 30.00 in1015.9 mb 0.00 in0.0 mm 0.00 in0.0 mm 0.00 in0.0 mm
02:39 AM 32.6°F0.3°C 35.8°F2.1°C 85% Calm Calm -- 30.00 in1015.9 mb 0.00 in0.0 mm 0.00 in0.0 mm 0.00 in0.0 mm
02:42 AM 32.6°F0.3°C 35.7°F2.1°C 85% Calm Calm -- 30.00 in1015.9 mb 0.00 in0.0 mm 0.00 in0.0 mm 0.00 in0.0 mm
02:45 AM 32.6°F0.3°C 35.7°F2.1°C 85% Calm Calm -- 29.99 in1015.6 mb 0.00 in0.0 mm 0.00 in0.0 mm 0.00 in0.0 mm
02:48 AM 32.6°F0.3°C 35.8°F2.1°C 84% Calm Calm -- 29.99 in1015.6 mb 0.00 in0.0 mm 0.00 in0.0 mm 0.00 in0.0 mm
02:51 AM 32.7°F0.4°C 35.8°F2.1°C 85% Calm Calm -- 29.99 in1015.6 mb 0.00 in0.0 mm 0.00 in0.0 mm 0.00 in0.0 mm
02:54 AM 32.7°F0.4°C 35.6°F2.0°C 84% Calm Calm -- 29.99 in1015.6 mb 0.00 in0.0 mm 0.00 in0.0 mm 0.00 in0.0 mm
02:57 AM 32.6°F0.3°C 35.9°F2.2°C 85% Calm Calm -- 29.99 in1015.6 mb 0.00 in0.0 mm 0.00 in0.0 mm 0.00 in0.0 mm
03:00 AM 32.7°F0.4°C 35.9°F2.2°C 85% Calm Calm -- 29.99 in1015.6 mb 0.00 in0.0 mm 0.00 in0.0 mm 0.00 in0.0 mm
03:03 AM 32.6°F0.3°C 35.8°F2.1°C 85% Calm Calm -- 29.99 in1015.6 mb 0.00 in0.0 mm 0.00 in0.0 mm 0.00 in0.0 mm
03:06 AM 32.7°F0.4°C 35.8°F2.1°C 85% Calm Calm -- 29.99 in1015.6 mb 0.00 in0.0 mm 0.00 in0.0 mm 0.00 in0.0 mm
03:09 AM 32.6°F0.3°C 35.7°F2.1°C 85% Calm Calm -- 29.99 in1015.6 mb 0.00 in0.0 mm 0.00 in0.0 mm 0.00 in0.0 mm
03:12 AM 32.5°F0.3°C 36.0°F2.2°C 85% Calm Calm -- 29.99 in1015.6 mb 0.00 in0.0 mm 0.00 in0.0 mm 0.00 in0.0 mm
03:15 AM 32.3°F0.2°C 35.7°F2.1°C 85% Calm Calm -- 29.98 in1015.2 mb 0.00 in0.0 mm 0.00 in0.0 mm 0.00 in0.0 mm
03:18 AM 32.6°F0.3°C 35.8°F2.1°C 85% Calm Calm -- 29.98 in1015.2 mb 0.00 in0.0 mm 0.00 in0.0 mm 0.00 in0.0 mm
03:21 AM 32.6°F0.3°C 35.7°F2.1°C 85% Calm Calm -- 29.97 in1014.9 mb 0.00 in0.0 mm 0.00 in0.0 mm 0.00 in0.0 mm
03:24 AM 32.6°F0.3°C 35.6°F2.0°C 84% Calm Calm -- 29.97 in1014.9 mb 0.00 in0.0 mm 0.00 in0.0 mm 0.00 in0.0 mm
03:27 AM 32.6°F0.3°C 35.7°F2.1°C 85% Calm Calm -- 29.97 in1014.9 mb 0.00 in0.0 mm 0.00 in0.0 mm 0.00 in0.0 mm
03:30 AM 32.6°F0.3°C 35.8°F2.1°C 85% Calm Calm -- 29.97 in1014.9 mb 0.00 in0.0 mm 0.00 in0.0 mm 0.00 in0.0 mm
03:33 AM 32.5°F0.3°C 35.6°F2.0°C 85% Calm Calm -- 29.97 in1014.9 mb 0.00 in0.0 mm 0.00 in0.0 mm 0.00 in0.0 mm
03:36 AM 32.5°F0.3°C 35.8°F2.1°C 86% Calm Calm -- 29.97 in1014.9 mb 0.00 in0.0 mm 0.00 in0.0 mm 0.00 in0.0 mm
03:39 AM 32.5°F0.3°C 35.7°F2.1°C 86% Calm Calm -- 29.97 in1014.9 mb 0.00 in0.0 mm 0.00 in0.0 mm 0.00 in0.0 mm
03:42 AM 32.5°F0.3°C 35.8°F2.1°C 87% Calm Calm -- 29.97 in1014.9 mb 0.00 in0.0 mm 0.00 in0.0 mm 0.00 in0.0 mm
03:45 AM 32.6°F0.3°C 36.1°F2.3°C 87% Calm Calm -- 29.97 in1014.9 mb 0.00 in0.0 mm 0.00 in0.0 mm 0.00 in0.0 mm
03:48 AM 32.6°F0.3°C 35.8°F2.1°C 87% Calm Calm -- 29.97 in1014.9 mb 0.00 in0.0 mm 0.00 in0.0 mm 0.00 in0.0 mm
03:51 AM 32.7°F0.4°C 35.9°F2.2°C 87% Calm Calm -- 29.96 in1014.6 mb 0.00 in0.0 mm 0.00 in0.0 mm 0.00 in0.0 mm
03:54 AM 32.7°F0.4°C 36.1°F2.3°C 88% Calm Calm -- 29.96 in1014.6 mb 0.00 in0.0 mm 0.00 in0.0 mm 0.00 in0.0 mm
03:57 AM 32.7°F0.4°C 35.9°F2.2°C 87% Calm Calm -- 29.96 in1014.6 mb 0.00 in0.0 mm 0.00 in0.0 mm 0.00 in0.0 mm
04:00 AM 32.7°F0.4°C 36.0°F2.2°C 87% Calm Calm -- 29.96 in1014.6 mb 0.00 in0.0 mm 0.00 in0.0 mm 0.00 in0.0 mm
04:03 AM 32.7°F0.4°C 36.0°F2.2°C 87% Calm Calm -- 29.97 in1014.9 mb 0.00 in0.0 mm 0.00 in0.0 mm 0.00 in0.0 mm
04:06 AM 32.8°F0.4°C 35.9°F2.2°C 87% Calm Calm -- 29.96 in1014.6 mb 0.00 in0.0 mm 0.00 in0.0 mm 0.00 in0.0 mm
04:09 AM 32.7°F0.4°C 36.0°F2.2°C 87% Calm Calm -- 29.97 in1014.9 mb 0.00 in0.0 mm 0.00 in0.0 mm 0.00 in0.0 mm
04:12 AM 32.8°F0.4°C 36.3°F2.4°C 87% Calm Calm -- 29.97 in1014.9 mb 0.00 in0.0 mm 0.00 in0.0 mm 0.00 in0.0 mm
04:15 AM 32.7°F0.4°C 36.0°F2.2°C 87% Calm Calm -- 29.96 in1014.6 mb 0.00 in0.0 mm 0.00 in0.0 mm 0.00 in0.0 mm
04:18 AM 32.7°F0.4°C 36.3°F2.4°C 87% Calm Calm -- 29.97 in1014.9 mb 0.00 in0.0 mm 0.00 in0.0 mm 0.00 in0.0 mm
04:21 AM 32.8°F0.4°C 35.9°F2.2°C 87% Calm Calm -- 29.97 in1014.9 mb 0.00 in0.0 mm 0.00 in0.0 mm 0.00 in0.0 mm
04:24 AM 32.7°F0.4°C 36.0°F2.2°C 87% Calm Calm -- 29.97 in1014.9 mb 0.00 in0.0 mm 0.00 in0.0 mm 0.00 in0.0 mm
04:27 AM 32.7°F0.4°C 36.2°F2.3°C 88% Calm Calm -- 29.97 in1014.9 mb 0.00 in0.0 mm 0.00 in0.0 mm 0.00 in0.0 mm
04:30 AM 32.8°F0.4°C 36.3°F2.4°C 88% Calm Calm -- 29.97 in1014.9 mb 0.00 in0.0 mm 0.00 in0.0 mm 0.00 in0.0 mm
04:33 AM 32.7°F0.4°C 35.9°F2.2°C 87% Calm Calm -- 29.97 in1014.9 mb 0.00 in0.0 mm 0.00 in0.0 mm 0.00 in0.0 mm
04:36 AM 32.7°F0.4°C 36.3°F2.4°C 88% Calm Calm -- 29.97 in1014.9 mb 0.00 in0.0 mm 0.00 in0.0 mm 0.00 in0.0 mm
04:39 AM 32.7°F0.4°C 35.8°F2.1°C 87% Calm Calm -- 29.97 in1014.9 mb 0.00 in0.0 mm 0.00 in0.0 mm 0.00 in0.0 mm
04:42 AM 32.7°F0.4°C 36.1°F2.3°C 87% Calm Calm -- 29.97 in1014.9 mb 0.00 in0.0 mm 0.00 in0.0 mm 0.00 in0.0 mm
04:45 AM 32.7°F0.4°C 36.2°F2.3°C 87% Calm Calm -- 29.97 in1014.9 mb 0.00 in0.0 mm 0.00 in0.0 mm 0.00 in0.0 mm
04:48 AM 32.7°F0.4°C 36.2°F2.3°C 87% Calm Calm -- 29.97 in1014.9 mb 0.00 in0.0 mm 0.00 in0.0 mm 0.00 in0.0 mm
04:51 AM 32.7°F0.4°C 36.1°F2.3°C 87% Calm Calm -- 29.97 in1014.9 mb 0.00 in0.0 mm 0.00 in0.0 mm 0.00 in0.0 mm
04:54 AM 32.8°F0.4°C 36.2°F2.3°C 87% Calm Calm -- 29.96 in1014.6 mb 0.00 in0.0 mm 0.00 in0.0 mm 0.00 in0.0 mm
04:57 AM 33.0°F0.6°C 36.3°F2.4°C 87% Calm Calm -- 29.96 in1014.6 mb 0.00 in0.0 mm 0.00 in0.0 mm 0.00 in0.0 mm
05:00 AM 32.9°F0.5°C 36.2°F2.3°C 87% Calm Calm -- 29.96 in1014.6 mb 0.00 in0.0 mm 0.00 in0.0 mm 0.00 in0.0 mm
05:03 AM 33.0°F0.6°C 36.2°F2.3°C 87% Calm Calm -- 29.96 in1014.6 mb 0.00 in0.0 mm 0.00 in0.0 mm 0.00 in0.0 mm
05:06 AM 33.0°F0.6°C 36.3°F2.4°C 87% Calm Calm -- 29.96 in1014.6 mb 0.00 in0.0 mm 0.00 in0.0 mm 0.00 in0.0 mm
05:09 AM 33.1°F0.6°C 36.5°F2.5°C 88% Calm Calm -- 29.96 in1014.6 mb 0.00 in0.0 mm 0.00 in0.0 mm 0.00 in0.0 mm
05:12 AM 33.1°F0.6°C 36.4°F2.4°C 87% Calm Calm -- 29.96 in1014.6 mb 0.00 in0.0 mm 0.00 in0.0 mm 0.00 in0.0 mm
05:15 AM 33.1°F0.6°C 36.3°F2.4°C 87% Calm Calm -- 29.97 in1014.9 mb 0.00 in0.0 mm 0.00 in0.0 mm 0.00 in0.0 mm
05:18 AM 33.0°F0.6°C 36.3°F2.4°C 88% Calm Calm -- 29.96 in1014.6 mb 0.00 in0.0 mm 0.00 in0.0 mm 0.00 in0.0 mm
05:21 AM 33.0°F0.6°C 36.3°F2.4°C 87% Calm Calm -- 29.96 in1014.6 mb 0.00 in0.0 mm 0.00 in0.0 mm 0.00 in0.0 mm
05:24 AM 33.0°F0.6°C 36.4°F2.4°C 88% Calm Calm -- 29.96 in1014.6 mb 0.00 in0.0 mm 0.00 in0.0 mm 0.00 in0.0 mm
05:27 AM 33.1°F0.6°C 36.5°F2.5°C 88% Calm Calm -- 29.96 in1014.6 mb 0.00 in0.0 mm 0.00 in0.0 mm 0.00 in0.0 mm
05:30 AM 33.1°F0.6°C 36.2°F2.3°C 87% Calm Calm -- 29.96 in1014.6 mb 0.00 in0.0 mm 0.00 in0.0 mm 0.00 in0.0 mm
05:33 AM 33.0°F0.6°C 36.4°F2.4°C 87% Calm Calm -- 29.96 in1014.6 mb 0.00 in0.0 mm 0.00 in0.0 mm 0.00 in0.0 mm
05:36 AM 33.1°F0.6°C 36.5°F2.5°C 88% Calm Calm -- 29.96 in1014.6 mb 0.00 in0.0 mm 0.00 in0.0 mm 0.00 in0.0 mm
05:39 AM 33.0°F0.6°C 36.3°F2.4°C 88% Calm Calm -- 29.96 in1014.6 mb 0.00 in0.0 mm 0.00 in0.0 mm 0.00 in0.0 mm
05:42 AM 33.1°F0.6°C 36.2°F2.3°C 87% Calm Calm -- 29.96 in1014.6 mb 0.00 in0.0 mm 0.00 in0.0 mm 0.00 in0.0 mm
05:45 AM 33.0°F0.6°C 36.4°F2.4°C 88% Calm Calm -- 29.96 in1014.6 mb 0.00 in0.0 mm 0.00 in0.0 mm 0.00 in0.0 mm
05:48 AM 33.1°F0.6°C 36.5°F2.5°C 88% Calm Calm -- 29.96 in1014.6 mb 0.00 in0.0 mm 0.00 in0.0 mm 0.00 in0.0 mm
05:51 AM 33.1°F0.6°C 36.5°F2.5°C 88% Calm Calm -- 29.96 in1014.6 mb 0.00 in0.0 mm 0.00 in0.0 mm 0.00 in0.0 mm
05:54 AM 33.1°F0.6°C 36.6°F2.6°C 87% Calm Calm -- 29.96 in1014.6 mb 0.00 in0.0 mm 0.00 in0.0 mm 0.00 in0.0 mm
05:57 AM 33.0°F0.6°C 36.2°F2.3°C 87% Calm Calm -- 29.96 in1014.6 mb 0.00 in0.0 mm 0.00 in0.0 mm 0.00 in0.0 mm
06:00 AM 33.0°F0.6°C 36.6°F2.6°C 88% Calm Calm -- 29.96 in1014.6 mb 0.00 in0.0 mm 0.00 in0.0 mm 0.00 in0.0 mm
06:03 AM 33.0°F0.6°C 36.5°F2.5°C 87% Calm Calm -- 29.96 in1014.6 mb 0.00 in0.0 mm 0.00 in0.0 mm 0.00 in0.0 mm
06:06 AM 33.0°F0.6°C 36.4°F2.4°C 87% Calm Calm -- 29.96 in1014.6 mb 0.00 in0.0 mm 0.00 in0.0 mm 0.00 in0.0 mm
06:09 AM 33.0°F0.6°C 36.5°F2.5°C 87% Calm Calm -- 29.96 in1014.6 mb 0.00 in0.0 mm 0.00 in0.0 mm 0.00 in0.0 mm
06:12 AM 33.0°F0.6°C 36.6°F2.6°C 88% Calm Calm -- 29.96 in1014.6 mb 0.00 in0.0 mm 0.00 in0.0 mm 0.00 in0.0 mm
06:15 AM 33.1°F0.6°C 36.7°F2.6°C 88% Calm Calm -- 29.96 in1014.6 mb 0.00 in0.0 mm 0.00 in0.0 mm 0.00 in0.0 mm
06:18 AM 33.1°F0.6°C 36.5°F2.5°C 88% Calm Calm -- 29.96 in1014.6 mb 0.00 in0.0 mm 0.00 in0.0 mm 0.00 in0.0 mm
06:21 AM 33.1°F0.6°C 36.7°F2.6°C 88% Calm Calm -- 29.96 in1014.6 mb 0.00 in0.0 mm 0.00 in0.0 mm 0.00 in0.0 mm
06:24 AM 33.1°F0.6°C 36.5°F2.5°C 88% Calm Calm -- 29.95 in1014.2 mb 0.00 in0.0 mm 0.00 in0.0 mm 0.00 in0.0 mm
06:27 AM 33.2°F0.7°C 36.8°F2.7°C 88% Calm Calm -- 29.94 in1013.9 mb 0.00 in0.0 mm 0.00 in0.0 mm 0.00 in0.0 mm
06:30 AM 33.1°F0.6°C 36.6°F2.6°C 88% Calm Calm -- 29.95 in1014.2 mb 0.00 in0.0 mm 0.00 in0.0 mm 0.00 in0.0 mm
06:33 AM 33.1°F0.6°C 36.7°F2.6°C 88% Calm Calm -- 29.95 in1014.2 mb 0.00 in0.0 mm 0.00 in0.0 mm 0.00 in0.0 mm
06:36 AM 33.1°F0.6°C 36.4°F2.4°C 87% Calm Calm -- 29.95 in1014.2 mb 0.00 in0.0 mm 0.00 in0.0 mm 0.00 in0.0 mm
06:39 AM 33.1°F0.6°C 36.7°F2.6°C 88% Calm Calm -- 29.94 in1013.9 mb 0.00 in0.0 mm 0.00 in0.0 mm 0.00 in0.0 mm
06:42 AM 33.1°F0.6°C 36.6°F2.6°C 88% Calm Calm -- 29.94 in1013.9 mb 0.00 in0.0 mm 0.00 in0.0 mm 0.00 in0.0 mm
06:45 AM 33.1°F0.6°C 36.5°F2.5°C 88% Calm Calm -- 29.94 in1013.9 mb 0.00 in0.0 mm 0.00 in0.0 mm 0.00 in0.0 mm
06:48 AM 33.1°F0.6°C 36.7°F2.6°C 88% Calm Calm -- 29.94 in1013.9 mb 0.00 in0.0 mm 0.00 in0.0 mm 0.00 in0.0 mm
06:51 AM 33.2°F0.7°C 37.0°F2.8°C 88% Calm Calm -- 29.95 in1014.2 mb 0.00 in0.0 mm 0.00 in0.0 mm 0.00 in0.0 mm
06:54 AM 33.2°F0.7°C 36.7°F2.6°C 88% Calm Calm -- 29.95 in1014.2 mb 0.00 in0.0 mm 0.00 in0.0 mm 0.00 in0.0 mm
06:57 AM 33.2°F0.7°C 36.7°F2.6°C 88% Calm Calm -- 29.94 in1013.9 mb 0.00 in0.0 mm 0.00 in0.0 mm 0.00 in0.0 mm
07:00 AM 33.2°F0.7°C 36.8°F2.7°C 88% Calm Calm -- 29.94 in1013.9 mb 0.00 in0.0 mm 0.00 in0.0 mm 0.00 in0.0 mm
07:03 AM 33.4°F0.8°C 36.6°F2.6°C 88% Calm Calm -- 29.94 in1013.9 mb 0.00 in0.0 mm 0.00 in0.0 mm 0.00 in0.0 mm
07:06 AM 33.4°F0.8°C 36.7°F2.6°C 88% Calm Calm -- 29.94 in1013.9 mb 0.00 in0.0 mm 0.00 in0.0 mm 0.00 in0.0 mm
07:09 AM 33.2°F0.7°C 37.1°F2.8°C 88% Calm Calm -- 29.93 in1013.5 mb 0.00 in0.0 mm 0.00 in0.0 mm 0.00 in0.0 mm
07:12 AM 33.2°F0.7°C 36.9°F2.7°C 88% Calm Calm -- 29.94 in1013.9 mb 0.00 in0.0 mm 0.00 in0.0 mm 0.00 in0.0 mm
07:15 AM 33.2°F0.7°C 36.9°F2.7°C 88% Calm Calm -- 29.94 in1013.9 mb 0.00 in0.0 mm 0.00 in0.0 mm 0.00 in0.0 mm
07:18 AM 33.2°F0.7°C 37.0°F2.8°C 88% Calm Calm -- 29.94 in1013.9 mb 0.00 in0.0 mm 0.00 in0.0 mm 0.00 in0.0 mm
07:21 AM 33.2°F0.7°C 36.7°F2.6°C 88% Calm Calm -- 29.94 in1013.9 mb 0.00 in0.0 mm 0.00 in0.0 mm 0.00 in0.0 mm
07:24 AM 33.2°F0.7°C 37.0°F2.8°C 88% Calm Calm -- 29.93 in1013.5 mb 0.00 in0.0 mm 0.00 in0.0 mm 0.00 in0.0 mm
07:27 AM 33.1°F0.6°C 36.6°F2.6°C 88% Calm Calm -- 29.93 in1013.5 mb 0.00 in0.0 mm 0.00 in0.0 mm 0.00 in0.0 mm
07:30 AM 33.2°F0.7°C 36.6°F2.6°C 88% Calm Calm -- 29.94 in1013.9 mb 0.00 in0.0 mm 0.00 in0.0 mm 0.00 in0.0 mm
07:33 AM 33.2°F0.7°C 36.7°F2.6°C 88% Calm Calm -- 29.93 in1013.5 mb 0.00 in0.0 mm 0.00 in0.0 mm 0.00 in0.0 mm
07:36 AM 33.2°F0.7°C 36.8°F2.7°C 88% Calm Calm -- 29.93 in1013.5 mb 0.00 in0.0 mm 0.00 in0.0 mm 0.00 in0.0 mm
07:39 AM 33.2°F0.7°C 36.7°F2.6°C 89% Calm Calm -- 29.93 in1013.5 mb 0.00 in0.0 mm 0.00 in0.0 mm 0.00 in0.0 mm
07:42 AM 33.2°F0.7°C 37.0°F2.8°C 88% Calm Calm -- 29.93 in1013.5 mb 0.00 in0.0 mm 0.00 in0.0 mm 0.00 in0.0 mm
07:45 AM 33.2°F0.7°C 36.7°F2.6°C 88% Calm Calm -- 29.93 in1013.5 mb 0.00 in0.0 mm 0.00 in0.0 mm 0.00 in0.0 mm
07:48 AM 33.2°F0.7°C 36.8°F2.7°C 88% Calm Calm -- 29.93 in1013.5 mb 0.00 in0.0 mm 0.00 in0.0 mm 0.00 in0.0 mm
07:51 AM 33.2°F0.7°C 37.0°F2.8°C 88% Calm Calm -- 29.93 in1013.5 mb 0.00 in0.0 mm 0.00 in0.0 mm 0.00 in0.0 mm
07:54 AM 33.4°F0.8°C 36.9°F2.7°C 89% Calm Calm -- 29.93 in1013.5 mb 0.00 in0.0 mm 0.00 in0.0 mm 0.00 in0.0 mm
07:57 AM 33.4°F0.8°C 37.1°F2.8°C 89% Calm Calm -- 29.93 in1013.5 mb 0.00 in0.0 mm 0.00 in0.0 mm 0.00 in0.0 mm
08:00 AM 33.4°F0.8°C 36.9°F2.7°C 89% Calm Calm -- 29.93 in1013.5 mb 0.00 in0.0 mm 0.00 in0.0 mm 0.00 in0.0 mm
08:03 AM 33.5°F0.8°C 37.0°F2.8°C 89% Calm Calm -- 29.93 in1013.5 mb 0.00 in0.0 mm 0.00 in0.0 mm 0.00 in0.0 mm
08:09 AM 33.6°F0.9°C 37.0°F2.8°C 88% Calm Calm -- 29.93 in1013.5 mb 0.00 in0.0 mm 0.00 in0.0 mm 0.00 in0.0 mm
08:12 AM 33.6°F0.9°C 37.3°F2.9°C 89% Calm Calm -- 29.92 in1013.2 mb 0.00 in0.0 mm 0.00 in0.0 mm 0.00 in0.0 mm
08:15 AM 33.6°F0.9°C 37.1°F2.8°C 88% Calm Calm -- 29.93 in1013.5 mb 0.00 in0.0 mm 0.00 in0.0 mm 0.00 in0.0 mm
08:18 AM 33.6°F0.9°C 37.1°F2.8°C 89% Calm Calm -- 29.93 in1013.5 mb 0.00 in0.0 mm 0.00 in0.0 mm 0.00 in0.0 mm
08:21 AM 33.6°F0.9°C 37.2°F2.9°C 88% Calm Calm -- 29.92 in1013.2 mb 0.00 in0.0 mm 0.00 in0.0 mm 0.00 in0.0 mm
08:24 AM 33.7°F0.9°C 37.2°F2.9°C 88% Calm Calm -- 29.92 in1013.2 mb 0.00 in0.0 mm 0.00 in0.0 mm 0.00 in0.0 mm
08:27 AM 33.7°F0.9°C 37.2°F2.9°C 89% Calm Calm -- 29.92 in1013.2 mb 0.00 in0.0 mm 0.00 in0.0 mm 0.00 in0.0 mm
08:30 AM 33.7°F0.9°C 37.4°F3.0°C 89% Calm Calm -- 29.92 in1013.2 mb 0.00 in0.0 mm 0.00 in0.0 mm 0.00 in0.0 mm
08:33 AM 33.8°F1.0°C 36.8°F2.7°C 87% Calm Calm -- 29.92 in1013.2 mb 0.00 in0.0 mm 0.00 in0.0 mm 0.00 in0.0 mm
08:36 AM 33.8°F1.0°C 37.2°F2.9°C 89% Calm Calm -- 29.92 in1013.2 mb 0.00 in0.0 mm 0.00 in0.0 mm 0.00 in0.0 mm
08:39 AM 33.9°F1.1°C 37.3°F2.9°C 88% Calm Calm -- 29.92 in1013.2 mb 0.00 in0.0 mm 0.00 in0.0 mm 0.00 in0.0 mm
08:42 AM 34.0°F1.1°C 37.4°F3.0°C 89% Calm Calm -- 29.92 in1013.2 mb 0.00 in0.0 mm 0.00 in0.0 mm 0.00 in0.0 mm
08:45 AM 34.1°F1.2°C 37.2°F2.9°C 88% Calm Calm -- 29.92 in1013.2 mb 0.00 in0.0 mm 0.00 in0.0 mm 0.00 in0.0 mm
08:48 AM 34.1°F1.2°C 37.6°F3.1°C 89% Calm Calm -- 29.92 in1013.2 mb 0.00 in0.0 mm 0.00 in0.0 mm 0.00 in0.0 mm
08:51 AM 34.4°F1.3°C 37.5°F3.1°C 89% Calm Calm -- 29.92 in1013.2 mb 0.00 in0.0 mm 0.00 in0.0 mm 0.00 in0.0 mm
08:54 AM 34.3°F1.3°C 37.6°F3.1°C 88% Calm Calm -- 29.91 in1012.9 mb 0.00 in0.0 mm 0.00 in0.0 mm 0.00 in0.0 mm
08:57 AM 34.5°F1.4°C 37.6°F3.1°C 89% Calm Calm -- 29.91 in1012.9 mb 0.00 in0.0 mm 0.00 in0.0 mm 0.00 in0.0 mm
09:00 AM 34.7°F1.5°C 37.6°F3.1°C 89% Calm Calm -- 29.90 in1012.5 mb 0.00 in0.0 mm 0.00 in0.0 mm 0.00 in0.0 mm
09:03 AM 34.8°F1.6°C 37.5°F3.1°C 88% Calm Calm -- 29.90 in1012.5 mb 0.00 in0.0 mm 0.00 in0.0 mm 0.00 in0.0 mm
09:06 AM 34.9°F1.6°C 37.7°F3.2°C 89% Calm Calm -- 29.90 in1012.5 mb 0.00 in0.0 mm 0.00 in0.0 mm 0.00 in0.0 mm
09:09 AM 35.4°F1.9°C 38.1°F3.4°C 89% Calm Calm -- 29.90 in1012.5 mb 0.00 in0.0 mm 0.00 in0.0 mm 0.00 in0.0 mm
09:12 AM 35.7°F2.1°C 37.7°F3.2°C 89% Calm Calm -- 29.90 in1012.5 mb 0.00 in0.0 mm 0.00 in0.0 mm 0.00 in0.0 mm
09:15 AM 35.6°F2.0°C 37.9°F3.3°C 89% Calm Calm -- 29.90 in1012.5 mb 0.00 in0.0 mm 0.00 in0.0 mm 0.00 in0.0 mm
09:18 AM 35.7°F2.1°C 38.1°F3.4°C 89% Calm Calm -- 29.89 in1012.2 mb 0.00 in0.0 mm 0.00 in0.0 mm 0.00 in0.0 mm
09:21 AM 35.9°F2.2°C 38.2°F3.4°C 89% Calm Calm -- 29.89 in1012.2 mb 0.00 in0.0 mm 0.00 in0.0 mm 0.00 in0.0 mm
09:24 AM 35.7°F2.1°C 37.7°F3.2°C 87% Calm Calm -- 29.89 in1012.2 mb 0.00 in0.0 mm 0.00 in0.0 mm 0.00 in0.0 mm
09:27 AM 36.1°F2.3°C 38.5°F3.6°C 89% Calm Calm -- 29.89 in1012.2 mb 0.00 in0.0 mm 0.00 in0.0 mm 0.00 in0.0 mm
09:30 AM 36.2°F2.3°C 38.4°F3.6°C 89% Calm Calm -- 29.89 in1012.2 mb 0.00 in0.0 mm 0.00 in0.0 mm 0.00 in0.0 mm
09:33 AM 36.2°F2.3°C 38.4°F3.6°C 89% Calm Calm -- 29.89 in1012.2 mb 0.00 in0.0 mm 0.00 in0.0 mm 0.00 in0.0 mm
09:36 AM 36.5°F2.5°C 38.5°F3.6°C 88% Calm Calm -- 29.88 in1011.9 mb 0.00 in0.0 mm 0.00 in0.0 mm 0.00 in0.0 mm
09:39 AM 36.5°F2.5°C 38.4°F3.6°C 88% Calm Calm -- 29.88 in1011.9 mb 0.00 in0.0 mm 0.00 in0.0 mm 0.00 in0.0 mm
09:42 AM 36.6°F2.6°C 38.6°F3.7°C 88% Calm Calm -- 29.88 in1011.9 mb 0.00 in0.0 mm 0.00 in0.0 mm 0.00 in0.0 mm
09:45 AM 36.5°F2.5°C 38.6°F3.7°C 88% Calm Calm -- 29.88 in1011.9 mb 0.00 in0.0 mm 0.00 in0.0 mm 0.00 in0.0 mm
09:48 AM 36.8°F2.7°C 38.5°F3.6°C 88% Calm Calm -- 29.88 in1011.9 mb 0.00 in0.0 mm 0.00 in0.0 mm 0.00 in0.0 mm
09:51 AM 36.5°F2.5°C 38.7°F3.7°C 88% Calm Calm -- 29.88 in1011.9 mb 0.00 in0.0 mm 0.00 in0.0 mm 0.00 in0.0 mm
09:54 AM 36.7°F2.6°C 39.0°F3.9°C 88% Calm Calm -- 29.88 in1011.9 mb 0.00 in0.0 mm 0.00 in0.0 mm 0.00 in0.0 mm
09:57 AM 37.1°F2.8°C 38.9°F3.8°C 88% Calm Calm -- 29.88 in1011.9 mb 0.00 in0.0 mm 0.00 in0.0 mm 0.00 in0.0 mm
10:00 AM 37.1°F2.8°C 39.1°F3.9°C 88% Calm Calm -- 29.88 in1011.9 mb 0.00 in0.0 mm 0.00 in0.0 mm 0.00 in0.0 mm
10:03 AM 37.1°F2.8°C 38.7°F3.7°C 87% Calm Calm -- 29.88 in1011.9 mb 0.00 in0.0 mm 0.00 in0.0 mm 0.00 in0.0 mm
10:06 AM 36.8°F2.7°C 39.0°F3.9°C 87% Calm Calm -- 29.87 in1011.5 mb 0.00 in0.0 mm 0.00 in0.0 mm 0.00 in0.0 mm
10:09 AM 37.0°F2.8°C 38.8°F3.8°C 87% Calm Calm -- 29.87 in1011.5 mb 0.00 in0.0 mm 0.00 in0.0 mm 0.00 in0.0 mm
10:12 AM 37.3°F2.9°C 38.8°F3.8°C 87% Calm Calm -- 29.86 in1011.2 mb 0.00 in0.0 mm 0.00 in0.0 mm 0.00 in0.0 mm
10:15 AM 36.7°F2.6°C 38.8°F3.8°C 86% Calm Calm -- 29.86 in1011.2 mb 0.00 in0.0 mm 0.00 in0.0 mm 0.00 in0.0 mm
10:18 AM 37.1°F2.8°C 38.9°F3.8°C 87% Calm Calm -- 29.86 in1011.2 mb 0.00 in0.0 mm 0.00 in0.0 mm 0.00 in0.0 mm
10:21 AM 37.1°F2.8°C 38.4°F3.6°C 86% Calm Calm -- 29.85 in1010.8 mb 0.00 in0.0 mm 0.00 in0.0 mm 0.00 in0.0 mm
10:24 AM 37.6°F3.1°C 39.1°F3.9°C 87% Calm Calm -- 29.85 in1010.8 mb 0.00 in0.0 mm 0.00 in0.0 mm 0.00 in0.0 mm
10:27 AM 38.0°F3.3°C 39.4°F4.1°C 87% Calm Calm -- 29.85 in1010.8 mb 0.00 in0.0 mm 0.00 in0.0 mm 0.00 in0.0 mm
10:30 AM 38.4°F3.6°C 39.4°F4.1°C 87% Calm Calm -- 29.85 in1010.8 mb 0.00 in0.0 mm 0.00 in0.0 mm 0.00 in0.0 mm
10:33 AM 38.3°F3.5°C 39.5°F4.2°C 87% Calm Calm -- 29.85 in1010.8 mb 0.00 in0.0 mm 0.00 in0.0 mm 0.00 in0.0 mm
10:36 AM 38.2°F3.4°C 39.2°F4.0°C 86% Calm Calm -- 29.85 in1010.8 mb 0.00 in0.0 mm 0.00 in0.0 mm 0.00 in0.0 mm
10:39 AM 38.3°F3.5°C 39.4°F4.1°C 86% Calm Calm -- 29.84 in1010.5 mb 0.00 in0.0 mm 0.00 in0.0 mm 0.00 in0.0 mm
10:42 AM 38.1°F3.4°C 39.3°F4.1°C 85% Calm Calm -- 29.85 in1010.8 mb 0.00 in0.0 mm 0.00 in0.0 mm 0.00 in0.0 mm
10:45 AM 38.0°F3.3°C 39.1°F3.9°C 85% Calm Calm -- 29.84 in1010.5 mb 0.00 in0.0 mm 0.00 in0.0 mm 0.00 in0.0 mm
10:48 AM 38.2°F3.4°C 39.3°F4.1°C 86% Calm Calm -- 29.84 in1010.5 mb 0.00 in0.0 mm 0.00 in0.0 mm 0.00 in0.0 mm
10:51 AM 38.3°F3.5°C 39.4°F4.1°C 86% Calm Calm -- 29.85 in1010.8 mb 0.00 in0.0 mm 0.00 in0.0 mm 0.00 in0.0 mm
10:54 AM 38.5°F3.6°C 39.4°F4.1°C 85% Calm Calm -- 29.85 in1010.8 mb 0.00 in0.0 mm 0.00 in0.0 mm 0.00 in0.0 mm
10:57 AM 38.3°F3.5°C 39.5°F4.2°C 85% Calm Calm -- 29.83 in1010.2 mb 0.00 in0.0 mm 0.00 in0.0 mm 0.00 in0.0 mm
11:00 AM 38.2°F3.4°C 39.4°F4.1°C 85% Calm Calm -- 29.83 in1010.2 mb 0.00 in0.0 mm 0.00 in0.0 mm 0.00 in0.0 mm
11:03 AM 38.1°F3.4°C 39.3°F4.1°C 84% Calm Calm -- 29.83 in1010.2 mb 0.00 in0.0 mm 0.00 in0.0 mm 0.00 in0.0 mm
11:06 AM 38.1°F3.4°C 39.1°F3.9°C 84% Calm Calm -- 29.83 in1010.2 mb 0.00 in0.0 mm 0.00 in0.0 mm 0.00 in0.0 mm
11:09 AM 37.9°F3.3°C 39.0°F3.9°C 84% Calm Calm -- 29.83 in1010.2 mb 0.00 in0.0 mm 0.00 in0.0 mm 0.00 in0.0 mm
11:12 AM 37.9°F3.3°C 39.1°F3.9°C 84% Calm Calm -- 29.83 in1010.2 mb 0.00 in0.0 mm 0.00 in0.0 mm 0.00 in0.0 mm
11:15 AM 38.3°F3.5°C 39.0°F3.9°C 84% Calm Calm -- 29.83 in1010.2 mb 0.00 in0.0 mm 0.00 in0.0 mm 0.00 in0.0 mm
11:18 AM 38.6°F3.7°C 39.5°F4.2°C 84% Calm Calm -- 29.83 in1010.2 mb 0.00 in0.0 mm 0.00 in0.0 mm 0.00 in0.0 mm
11:21 AM 38.8°F3.8°C 39.3°F4.1°C 84% 1.2 mph SW1.9 kmh SW 1.2 mph1.9 kmh 29.83 in1010.2 mb 0.00 in0.0 mm 0.00 in0.0 mm 0.00 in0.0 mm
11:24 AM 39.0°F3.9°C 39.7°F4.3°C 85% Calm Calm -- 29.82 in1009.8 mb 0.00 in0.0 mm 0.00 in0.0 mm 0.00 in0.0 mm
11:27 AM 39.1°F3.9°C 39.7°F4.3°C 84% Calm Calm -- 29.82 in1009.8 mb 0.00 in0.0 mm 0.00 in0.0 mm 0.00 in0.0 mm
11:30 AM 39.1°F3.9°C 39.6°F4.2°C 84% Calm Calm -- 29.82 in1009.8 mb 0.00 in0.0 mm 0.00 in0.0 mm 0.00 in0.0 mm
11:33 AM 39.2°F4.0°C 39.6°F4.2°C 84% 1.6 mph NNW2.6 kmh NNW 1.6 mph2.6 kmh 29.81 in1009.5 mb 0.00 in0.0 mm 0.00 in0.0 mm 0.00 in0.0 mm
11:36 AM 39.5°F4.2°C 39.9°F4.4°C 84% Calm Calm -- 29.81 in1009.5 mb 0.00 in0.0 mm 0.00 in0.0 mm 0.00 in0.0 mm
11:39 AM 39.7°F4.3°C 39.8°F4.3°C 84% Calm Calm -- 29.81 in1009.5 mb 0.00 in0.0 mm 0.00 in0.0 mm 0.00 in0.0 mm
11:42 AM 39.9°F4.4°C 40.3°F4.6°C 84% Calm Calm -- 29.81 in1009.5 mb 0.00 in0.0 mm 0.00 in0.0 mm 0.00 in0.0 mm
11:45 AM 39.8°F4.3°C 39.9°F4.4°C 83% Calm Calm -- 29.81 in1009.5 mb 0.00 in0.0 mm 0.00 in0.0 mm 0.00 in0.0 mm
11:48 AM 39.7°F4.3°C 39.5°F4.2°C 82% Calm Calm -- 29.80 in1009.1 mb 0.00 in0.0 mm 0.00 in0.0 mm 0.00 in0.0 mm
11:51 AM 40.0°F4.4°C 39.5°F4.2°C 82% Calm Calm -- 29.80 in1009.1 mb 0.00 in0.0 mm 0.00 in0.0 mm 0.00 in0.0 mm
11:54 AM 40.8°F4.9°C 40.3°F4.6°C 83% 0.8 mph NNW1.3 kmh NNW 0.8 mph1.3 kmh 29.80 in1009.1 mb 0.00 in0.0 mm 0.00 in0.0 mm 0.00 in0.0 mm
11:57 AM 40.8°F4.9°C 39.9°F4.4°C 82% Calm Calm -- 29.80 in1009.1 mb 0.00 in0.0 mm 0.00 in0.0 mm 0.00 in0.0 mm
12:00 PM 40.6°F4.8°C 40.2°F4.6°C 82% Calm Calm -- 29.79 in1008.8 mb 0.00 in0.0 mm 0.00 in0.0 mm 0.00 in0.0 mm
12:03 PM 40.7°F4.8°C 40.5°F4.7°C 82% Calm Calm -- 29.79 in1008.8 mb 0.00 in0.0 mm 0.00 in0.0 mm 0.00 in0.0 mm
12:06 PM 40.3°F4.6°C 39.8°F4.3°C 81% Calm Calm -- 29.79 in1008.8 mb 0.00 in0.0 mm 0.00 in0.0 mm 0.00 in0.0 mm
12:09 PM 40.7°F4.8°C 40.0°F4.4°C 81% Calm Calm -- 29.79 in1008.8 mb 0.00 in0.0 mm 0.00 in0.0 mm 0.00 in0.0 mm
12:12 PM 40.3°F4.6°C 40.1°F4.5°C 81% Calm Calm -- 29.79 in1008.8 mb 0.00 in0.0 mm 0.00 in0.0 mm 0.00 in0.0 mm
12:15 PM 41.0°F5.0°C 40.2°F4.6°C 81% Calm Calm -- 29.78 in1008.5 mb 0.00 in0.0 mm 0.00 in0.0 mm 0.00 in0.0 mm
12:18 PM 40.8°F4.9°C 39.6°F4.2°C 80% 1.6 mph SSW2.6 kmh SSW 1.6 mph2.6 kmh 29.78 in1008.5 mb 0.00 in0.0 mm 0.00 in0.0 mm 0.00 in0.0 mm
12:21 PM 41.1°F5.1°C 40.3°F4.6°C 81% Calm Calm -- 29.77 in1008.1 mb 0.00 in0.0 mm 0.00 in0.0 mm 0.00 in0.0 mm
12:24 PM 41.3°F5.2°C 40.4°F4.7°C 81% Calm Calm -- 29.77 in1008.1 mb 0.00 in0.0 mm 0.00 in0.0 mm 0.00 in0.0 mm
12:27 PM 40.9°F4.9°C 40.1°F4.5°C 80% Calm Calm -- 29.76 in1007.8 mb 0.00 in0.0 mm 0.00 in0.0 mm 0.00 in0.0 mm
12:30 PM 41.0°F5.0°C 40.0°F4.4°C 80% Calm Calm -- 29.77 in1008.1 mb 0.00 in0.0 mm 0.00 in0.0 mm 0.00 in0.0 mm
12:33 PM 40.8°F4.9°C 39.9°F4.4°C 79% Calm Calm -- 29.76 in1007.8 mb 0.00 in0.0 mm 0.00 in0.0 mm 0.00 in0.0 mm
12:36 PM 41.2°F5.1°C 40.1°F4.5°C 80% Calm Calm -- 29.75 in1007.5 mb 0.00 in0.0 mm 0.00 in0.0 mm 0.00 in0.0 mm
12:39 PM 40.9°F4.9°C 39.7°F4.3°C 78% Calm Calm -- 29.75 in1007.5 mb 0.00 in0.0 mm 0.00 in0.0 mm 0.00 in0.0 mm
12:42 PM 41.1°F5.1°C 40.1°F4.5°C 79% Calm Calm -- 29.75 in1007.5 mb 0.00 in0.0 mm 0.00 in0.0 mm 0.00 in0.0 mm
12:45 PM 41.0°F5.0°C 40.2°F4.6°C 79% Calm Calm -- 29.75 in1007.5 mb 0.00 in0.0 mm 0.00 in0.0 mm 0.00 in0.0 mm
12:48 PM 41.2°F5.1°C 40.0°F4.4°C 79% Calm Calm -- 29.75 in1007.5 mb 0.00 in0.0 mm 0.00 in0.0 mm 0.00 in0.0 mm
12:51 PM 41.1°F5.1°C 39.6°F4.2°C 77% 2.0 mph S3.2 kmh S 2.0 mph3.2 kmh 29.75 in1007.5 mb 0.00 in0.0 mm 0.00 in0.0 mm 0.00 in0.0 mm
12:54 PM 41.2°F5.1°C 39.6°F4.2°C 77% Calm Calm -- 29.74 in1007.1 mb 0.00 in0.0 mm 0.00 in0.0 mm 0.00 in0.0 mm
12:57 PM 41.6°F5.3°C 40.0°F4.4°C 78% Calm Calm -- 29.74 in1007.1 mb 0.00 in0.0 mm 0.00 in0.0 mm 0.00 in0.0 mm
01:00 PM 41.6°F5.3°C 39.8°F4.3°C 77% Calm Calm -- 29.74 in1007.1 mb 0.00 in0.0 mm 0.00 in0.0 mm 0.00 in0.0 mm
01:03 PM 41.6°F5.3°C 40.0°F4.4°C 78% Calm Calm -- 29.73 in1006.8 mb 0.00 in0.0 mm 0.00 in0.0 mm 0.00 in0.0 mm
01:06 PM 41.1°F5.1°C 39.8°F4.3°C 77% Calm Calm -- 29.72 in1006.4 mb 0.00 in0.0 mm 0.00 in0.0 mm 0.00 in0.0 mm
01:09 PM 41.6°F5.3°C 40.1°F4.5°C 78% Calm Calm -- 29.72 in1006.4 mb 0.00 in0.0 mm 0.00 in0.0 mm 0.00 in0.0 mm
01:12 PM 41.5°F5.3°C 40.2°F4.6°C 77% 0.4 mph SW0.6 kmh SW 0.4 mph0.6 kmh 29.72 in1006.4 mb 0.00 in0.0 mm 0.00 in0.0 mm 0.00 in0.0 mm
01:15 PM 41.1°F5.1°C 39.8°F4.3°C 77% Calm Calm -- 29.71 in1006.1 mb 0.00 in0.0 mm 0.00 in0.0 mm 0.00 in0.0 mm
01:18 PM 41.3°F5.2°C 40.1°F4.5°C 77% Calm Calm -- 29.70 in1005.8 mb 0.00 in0.0 mm 0.00 in0.0 mm 0.00 in0.0 mm
01:21 PM 41.1°F5.1°C 40.1°F4.5°C 77% Calm Calm -- 29.70 in1005.8 mb 0.00 in0.0 mm 0.00 in0.0 mm 0.00 in0.0 mm
01:24 PM 41.1°F5.1°C 40.2°F4.6°C 77% Calm Calm -- 29.71 in1006.1 mb 0.00 in0.0 mm 0.00 in0.0 mm 0.00 in0.0 mm
01:27 PM 40.9°F4.9°C 40.1°F4.5°C 77% Calm Calm -- 29.70 in1005.8 mb 0.00 in0.0 mm 0.00 in0.0 mm 0.00 in0.0 mm
01:30 PM 40.3°F4.6°C 39.3°F4.1°C 76% Calm Calm -- 29.71 in1006.1 mb 0.00 in0.0 mm 0.00 in0.0 mm 0.00 in0.0 mm
01:33 PM 41.1°F5.1°C 39.8°F4.3°C 77% 1.5 mph SSW2.4 kmh SSW 1.5 mph2.4 kmh 29.70 in1005.8 mb 0.00 in0.0 mm 0.00 in0.0 mm 0.00 in0.0 mm
01:36 PM 40.9°F4.9°C 39.8°F4.3°C 77% Calm Calm -- 29.70 in1005.8 mb 0.00 in0.0 mm 0.00 in0.0 mm 0.00 in0.0 mm
01:39 PM 41.2°F5.1°C 40.2°F4.6°C 78% 0.4 mph SSE0.6 kmh SSE 0.4 mph0.6 kmh 29.70 in1005.8 mb 0.00 in0.0 mm 0.00 in0.0 mm 0.00 in0.0 mm
01:42 PM 41.3°F5.2°C 40.2°F4.6°C 77% Calm Calm -- 29.69 in1005.4 mb 0.00 in0.0 mm 0.00 in0.0 mm 0.00 in0.0 mm
01:45 PM 40.9°F4.9°C 39.8°F4.3°C 77% 5.2 mph NNW8.4 kmh NNW 5.2 mph8.4 kmh 29.68 in1005.1 mb 0.00 in0.0 mm 0.00 in0.0 mm 0.00 in0.0 mm
01:48 PM 40.9°F4.9°C 39.9°F4.4°C 77% Calm Calm -- 29.68 in1005.1 mb 0.00 in0.0 mm 0.00 in0.0 mm 0.00 in0.0 mm
01:51 PM 41.1°F5.1°C 40.0°F4.4°C 77% 3.6 mph SSW5.8 kmh SSW 3.6 mph5.8 kmh 29.68 in1005.1 mb 0.00 in0.0 mm 0.00 in0.0 mm 0.00 in0.0 mm
01:54 PM 41.2°F5.1°C 40.0°F4.4°C 77% 0.4 mph S0.6 kmh S 0.4 mph0.6 kmh 29.67 in1004.7 mb 0.00 in0.0 mm 0.00 in0.0 mm 0.00 in0.0 mm
01:57 PM 41.3°F5.2°C 39.9°F4.4°C 76% Calm Calm -- 29.67 in1004.7 mb 0.00 in0.0 mm 0.00 in0.0 mm 0.00 in0.0 mm
02:00 PM 41.3°F5.2°C 39.4°F4.1°C 76% Calm Calm -- 29.66 in1004.4 mb 0.00 in0.0 mm 0.00 in0.0 mm 0.00 in0.0 mm
02:03 PM 41.3°F5.2°C 39.6°F4.2°C 76% Calm Calm -- 29.66 in1004.4 mb 0.00 in0.0 mm 0.00 in0.0 mm 0.00 in0.0 mm
02:06 PM 41.2°F5.1°C 39.5°F4.2°C 75% 2.4 mph S3.9 kmh S 2.4 mph3.9 kmh 29.66 in1004.4 mb 0.00 in0.0 mm 0.00 in0.0 mm 0.00 in0.0 mm
02:09 PM 41.1°F5.1°C 39.3°F4.1°C 75% Calm Calm -- 29.65 in1004.1 mb 0.00 in0.0 mm 0.00 in0.0 mm 0.00 in0.0 mm
02:12 PM 40.9°F4.9°C 39.0°F3.9°C 74% Calm Calm -- 29.66 in1004.4 mb 0.00 in0.0 mm 0.00 in0.0 mm 0.00 in0.0 mm
02:15 PM 40.8°F4.9°C 38.9°F3.8°C 74% Calm Calm -- 29.65 in1004.1 mb 0.00 in0.0 mm 0.00 in0.0 mm 0.00 in0.0 mm
02:18 PM 40.8°F4.9°C 39.2°F4.0°C 75% 0.4 mph NNW0.6 kmh NNW 0.4 mph0.6 kmh 29.66 in1004.4 mb 0.00 in0.0 mm 0.00 in0.0 mm 0.00 in0.0 mm
02:21 PM 40.8°F4.9°C 39.2°F4.0°C 75% 5.6 mph WSW9.0 kmh WSW 5.6 mph9.0 kmh 29.66 in1004.4 mb 0.00 in0.0 mm 0.00 in0.0 mm 0.00 in0.0 mm
02:24 PM 40.7°F4.8°C 38.9°F3.8°C 74% 0.8 mph SW1.3 kmh SW 0.8 mph1.3 kmh 29.66 in1004.4 mb 0.00 in0.0 mm 0.00 in0.0 mm 0.00 in0.0 mm
02:27 PM 40.6°F4.8°C 39.2°F4.0°C 74% Calm Calm -- 29.66 in1004.4 mb 0.00 in0.0 mm 0.00 in0.0 mm 0.00 in0.0 mm
02:30 PM 40.6°F4.8°C 39.1°F3.9°C 75% 0.4 mph NNW0.6 kmh NNW 0.4 mph0.6 kmh 29.64 in1003.7 mb 0.00 in0.0 mm 0.00 in0.0 mm 0.00 in0.0 mm
02:33 PM 40.7°F4.8°C 39.5°F4.2°C 75% Calm Calm -- 29.64 in1003.7 mb 0.00 in0.0 mm 0.00 in0.0 mm 0.00 in0.0 mm
02:36 PM 40.7°F4.8°C 39.7°F4.3°C 75% Calm Calm -- 29.64 in1003.7 mb 0.00 in0.0 mm 0.00 in0.0 mm 0.00 in0.0 mm
02:39 PM 40.3°F4.6°C 39.3°F4.1°C 75% Calm Calm -- 29.64 in1003.7 mb 0.00 in0.0 mm 0.00 in0.0 mm 0.00 in0.0 mm
02:42 PM 40.2°F4.6°C 39.4°F4.1°C 75% 0.4 mph NNW0.6 kmh NNW 0.4 mph0.6 kmh 29.64 in1003.7 mb 0.00 in0.0 mm 0.00 in0.0 mm 0.00 in0.0 mm
02:45 PM 40.1°F4.5°C 39.3°F4.1°C 75% 5.2 mph WSW8.4 kmh WSW 5.3 mph8.5 kmh 29.64 in1003.7 mb 0.00 in0.0 mm 0.00 in0.0 mm 0.00 in0.0 mm
02:48 PM 39.9°F4.4°C 39.1°F3.9°C 75% Calm Calm -- 29.64 in1003.7 mb 0.00 in0.0 mm 0.00 in0.0 mm 0.00 in0.0 mm
02:51 PM 39.9°F4.4°C 39.0°F3.9°C 74% 3.2 mph NNW5.1 kmh NNW 3.2 mph5.1 kmh 29.64 in1003.7 mb 0.00 in0.0 mm 0.00 in0.0 mm 0.00 in0.0 mm
02:54 PM 39.8°F4.3°C 38.8°F3.8°C 74% Calm Calm -- 29.64 in1003.7 mb 0.00 in0.0 mm 0.00 in0.0 mm 0.00 in0.0 mm
02:57 PM 39.8°F4.3°C 39.2°F4.0°C 75% Calm Calm -- 29.64 in1003.7 mb 0.00 in0.0 mm 0.00 in0.0 mm 0.00 in0.0 mm
03:00 PM 39.8°F4.3°C 38.8°F3.8°C 75% 1.1 mph SSE1.8 kmh SSE 1.2 mph1.9 kmh 29.64 in1003.7 mb 0.00 in0.0 mm 0.00 in0.0 mm 0.00 in0.0 mm
03:03 PM 39.5°F4.2°C 38.9°F3.8°C 75% 0.4 mph SSW0.6 kmh SSW 0.4 mph0.6 kmh 29.63 in1003.4 mb 0.00 in0.0 mm 0.00 in0.0 mm 0.00 in0.0 mm
03:06 PM 39.4°F4.1°C 38.8°F3.8°C 76% 4.8 mph SSW7.7 kmh SSW 4.8 mph7.7 kmh 29.63 in1003.4 mb 0.00 in0.0 mm 0.00 in0.0 mm 0.00 in0.0 mm
03:09 PM 39.3°F4.1°C 39.1°F3.9°C 76% Calm Calm -- 29.63 in1003.4 mb 0.00 in0.0 mm 0.00 in0.0 mm 0.00 in0.0 mm
03:12 PM 39.2°F4.0°C 39.2°F4.0°C 76% 4.0 mph SW6.4 kmh SW 4.0 mph6.4 kmh 29.63 in1003.4 mb 0.00 in0.0 mm 0.00 in0.0 mm 0.00 in0.0 mm
03:15 PM 39.4°F4.1°C 39.1°F3.9°C 76% Calm Calm -- 29.63 in1003.4 mb 0.00 in0.0 mm 0.00 in0.0 mm 0.00 in0.0 mm
03:18 PM 39.3°F4.1°C 39.2°F4.0°C 76% 4.7 mph WSW7.6 kmh WSW 4.8 mph7.7 kmh 29.63 in1003.4 mb 0.00 in0.0 mm 0.00 in0.0 mm 0.00 in0.0 mm
03:21 PM 39.1°F3.9°C 39.0°F3.9°C 77% Calm Calm -- 29.62 in1003.0 mb 0.00 in0.0 mm 0.00 in0.0 mm 0.00 in0.0 mm
03:24 PM 38.8°F3.8°C 39.1°F3.9°C 77% 4.0 mph SSW6.4 kmh SSW 4.1 mph6.6 kmh 29.62 in1003.0 mb 0.00 in0.0 mm 0.00 in0.0 mm 0.00 in0.0 mm
03:27 PM 38.5°F3.6°C 39.3°F4.1°C 78% 5.6 mph SW9.0 kmh SW 5.7 mph9.2 kmh 29.62 in1003.0 mb 0.00 in0.0 mm 0.00 in0.0 mm 0.00 in0.0 mm
03:30 PM 38.1°F3.4°C 39.4°F4.1°C 79% 4.0 mph SSW6.4 kmh SSW 4.1 mph6.6 kmh 29.61 in1002.7 mb 0.00 in0.0 mm 0.00 in0.0 mm 0.00 in0.0 mm
03:33 PM 37.6°F3.1°C 39.3°F4.1°C 79% 4.4 mph WSW7.1 kmh WSW 4.5 mph7.2 kmh 29.61 in1002.7 mb 0.00 in0.0 mm 0.00 in0.0 mm 0.00 in0.0 mm
03:36 PM 37.4°F3.0°C 39.1°F3.9°C 79% 5.7 mph SW9.2 kmh SW 5.7 mph9.2 kmh 29.61 in1002.7 mb 0.00 in0.0 mm 0.00 in0.0 mm 0.00 in0.0 mm
03:39 PM 37.3°F2.9°C 39.5°F4.2°C 80% 5.2 mph SW8.4 kmh SW 5.2 mph8.4 kmh 29.61 in1002.7 mb 0.00 in0.0 mm 0.00 in0.0 mm 0.00 in0.0 mm
03:42 PM 37.1°F2.8°C 39.4°F4.1°C 80% 3.6 mph SSW5.8 kmh SSW 3.7 mph6.0 kmh 29.61 in1002.7 mb 0.00 in0.0 mm 0.00 in0.0 mm 0.00 in0.0 mm
03:45 PM 36.8°F2.7°C 39.3°F4.1°C 81% 4.0 mph SSW6.4 kmh SSW 4.1 mph6.6 kmh 29.61 in1002.7 mb 0.00 in0.0 mm 0.00 in0.0 mm 0.02 in0.5 mm
03:48 PM 36.7°F2.6°C 39.4°F4.1°C 81% 4.8 mph WSW7.7 kmh WSW 4.9 mph7.9 kmh 29.61 in1002.7 mb 0.00 in0.0 mm 0.00 in0.0 mm 0.02 in0.5 mm
03:51 PM 36.5°F2.5°C 39.3°F4.1°C 81% 4.3 mph NNW6.9 kmh NNW 4.4 mph7.1 kmh 29.61 in1002.7 mb 0.00 in0.0 mm 0.00 in0.0 mm 0.02 in0.5 mm
03:54 PM 36.3°F2.4°C 39.1°F3.9°C 81% Calm Calm -- 29.61 in1002.7 mb 0.00 in0.0 mm 0.00 in0.0 mm 0.02 in0.5 mm
03:57 PM 36.2°F2.3°C 39.2°F4.0°C 81% Calm Calm -- 29.61 in1002.7 mb 0.00 in0.0 mm 0.00 in0.0 mm 0.04 in1.0 mm
04:00 PM 36.1°F2.3°C 39.1°F3.9°C 81% 2.3 mph SW3.7 kmh SW 2.3 mph3.7 kmh 29.61 in1002.7 mb 0.00 in0.0 mm 0.00 in0.0 mm 0.04 in1.0 mm
04:03 PM 35.5°F1.9°C 39.0°F3.9°C 81% Calm Calm -- 29.61 in1002.7 mb 0.00 in0.0 mm 0.00 in0.0 mm 0.04 in1.0 mm
04:06 PM 35.3°F1.8°C 38.8°F3.8°C 82% 2.8 mph SSW4.5 kmh SSW 2.9 mph4.7 kmh 29.61 in1002.7 mb 0.00 in0.0 mm 0.00 in0.0 mm 0.06 in1.5 mm
04:09 PM 35.3°F1.8°C 38.8°F3.8°C 82% Calm Calm -- 29.61 in1002.7 mb 0.00 in0.0 mm 0.00 in0.0 mm 0.06 in1.5 mm
04:12 PM 35.3°F1.8°C 38.7°F3.7°C 82% Calm Calm -- 29.61 in1002.7 mb 0.00 in0.0 mm 0.00 in0.0 mm 0.06 in1.5 mm
04:15 PM 35.2°F1.8°C 38.7°F3.7°C 82% Calm Calm -- 29.61 in1002.7 mb 0.00 in0.0 mm 0.00 in0.0 mm 0.06 in1.5 mm
04:18 PM 34.8°F1.6°C 38.6°F3.7°C 82% Calm Calm -- 29.61 in1002.7 mb 0.00 in0.0 mm 0.00 in0.0 mm 0.06 in1.5 mm
04:21 PM 34.8°F1.6°C 38.4°F3.6°C 82% Calm Calm -- 29.60 in1002.4 mb 0.00 in0.0 mm 0.00 in0.0 mm 0.06 in1.5 mm
04:24 PM 34.5°F1.4°C 38.2°F3.4°C 82% Calm Calm -- 29.60 in1002.4 mb 0.00 in0.0 mm 0.00 in0.0 mm 0.06 in1.5 mm
04:27 PM 34.4°F1.3°C 38.3°F3.5°C 82% Calm Calm -- 29.60 in1002.4 mb 0.00 in0.0 mm 0.00 in0.0 mm 0.08 in2.0 mm
04:30 PM 34.1°F1.2°C 38.1°F3.4°C 82% Calm Calm -- 29.60 in1002.4 mb 0.00 in0.0 mm 0.00 in0.0 mm 0.08 in2.0 mm
04:33 PM 34.0°F1.1°C 37.6°F3.1°C 81% Calm Calm -- 29.60 in1002.4 mb 0.00 in0.0 mm 0.00 in0.0 mm 0.08 in2.0 mm
04:36 PM 33.8°F1.0°C 38.0°F3.3°C 82% Calm Calm -- 29.59 in1002.0 mb 0.00 in0.0 mm 0.00 in0.0 mm 0.08 in2.0 mm
04:39 PM 33.9°F1.1°C 37.9°F3.3°C 82% Calm Calm -- 29.60 in1002.4 mb 0.00 in0.0 mm 0.00 in0.0 mm 0.08 in2.0 mm
04:42 PM 33.9°F1.1°C 37.7°F3.2°C 82% Calm Calm -- 29.60 in1002.4 mb 0.00 in0.0 mm 0.00 in0.0 mm 0.08 in2.0 mm
04:48 PM 33.9°F1.1°C 37.8°F3.2°C 82% Calm Calm -- 29.60 in1002.4 mb 0.00 in0.0 mm 0.00 in0.0 mm 0.08 in2.0 mm
04:51 PM 33.7°F0.9°C 38.0°F3.3°C 83% Calm Calm -- 29.59 in1002.0 mb 0.00 in0.0 mm 0.00 in0.0 mm 0.08 in2.0 mm
04:54 PM 33.8°F1.0°C 37.8°F3.2°C 83% Calm Calm -- 29.59 in1002.0 mb 0.00 in0.0 mm 0.00 in0.0 mm 0.08 in2.0 mm
04:57 PM 33.8°F1.0°C 37.9°F3.3°C 84% Calm Calm -- 29.59 in1002.0 mb 0.00 in0.0 mm 0.00 in0.0 mm 0.08 in2.0 mm
05:00 PM 33.8°F1.0°C 37.7°F3.2°C 84% Calm Calm -- 29.59 in1002.0 mb 0.00 in0.0 mm 0.00 in0.0 mm 0.08 in2.0 mm
05:03 PM 34.1°F1.2°C 38.0°F3.3°C 85% Calm Calm -- 29.59 in1002.0 mb 0.00 in0.0 mm 0.00 in0.0 mm 0.08 in2.0 mm
05:06 PM 34.3°F1.3°C 38.0°F3.3°C 86% Calm Calm -- 29.59 in1002.0 mb 0.00 in0.0 mm 0.00 in0.0 mm 0.08 in2.0 mm
05:09 PM 34.3°F1.3°C 38.3°F3.5°C 86% Calm Calm -- 29.58 in1001.7 mb 0.00 in0.0 mm 0.00 in0.0 mm 0.08 in2.0 mm
05:12 PM 34.3°F1.3°C 38.3°F3.5°C 86% Calm Calm -- 29.58 in1001.7 mb 0.00 in0.0 mm 0.00 in0.0 mm 0.08 in2.0 mm
05:15 PM 34.3°F1.3°C 38.4°F3.6°C 86% Calm Calm -- 29.58 in1001.7 mb 0.00 in0.0 mm 0.00 in0.0 mm 0.08 in2.0 mm
05:18 PM 34.3°F1.3°C 38.4°F3.6°C 85% Calm Calm -- 29.58 in1001.7 mb 0.00 in0.0 mm 0.00 in0.0 mm 0.10 in2.5 mm
05:21 PM 34.3°F1.3°C 38.3°F3.5°C 86% Calm Calm -- 29.58 in1001.7 mb 0.00 in0.0 mm 0.00 in0.0 mm 0.10 in2.5 mm
05:24 PM 34.4°F1.3°C 38.3°F3.5°C 86% Calm Calm -- 29.57 in1001.4 mb 0.00 in0.0 mm 0.00 in0.0 mm 0.10 in2.5 mm
05:27 PM 34.4°F1.3°C 38.5°F3.6°C 87% Calm Calm -- 29.57 in1001.4 mb 0.00 in0.0 mm 0.00 in0.0 mm 0.10 in2.5 mm
05:30 PM 34.5°F1.4°C 38.1°F3.4°C 86% Calm Calm -- 29.57 in1001.4 mb 0.00 in0.0 mm 0.00 in0.0 mm 0.10 in2.5 mm
05:33 PM 34.5°F1.4°C 38.7°F3.7°C 88% Calm Calm -- 29.57 in1001.4 mb 0.00 in0.0 mm 0.00 in0.0 mm 0.10 in2.5 mm
05:36 PM 34.6°F1.4°C 38.7°F3.7°C 88% Calm Calm -- 29.57 in1001.4 mb 0.00 in0.0 mm 0.00 in0.0 mm 0.10 in2.5 mm
05:39 PM 34.6°F1.4°C 38.5°F3.6°C 87% Calm Calm -- 29.57 in1001.4 mb 0.00 in0.0 mm 0.00 in0.0 mm 0.10 in2.5 mm
05:42 PM 34.6°F1.4°C 38.8°F3.8°C 87% Calm Calm -- 29.57 in1001.4 mb 0.00 in0.0 mm 0.00 in0.0 mm 0.10 in2.5 mm
05:45 PM 34.6°F1.4°C 38.6°F3.7°C 87% Calm Calm -- 29.57 in1001.4 mb 0.00 in0.0 mm 0.00 in0.0 mm 0.10 in2.5 mm
05:48 PM 34.7°F1.5°C 38.3°F3.5°C 86% Calm Calm -- 29.57 in1001.4 mb 0.00 in0.0 mm 0.00 in0.0 mm 0.10 in2.5 mm
05:51 PM 34.7°F1.5°C 38.7°F3.7°C 88% Calm Calm -- 29.57 in1001.4 mb 0.00 in0.0 mm 0.00 in0.0 mm 0.10 in2.5 mm
05:54 PM 34.7°F1.5°C 38.4°F3.6°C 87% Calm Calm -- 29.57 in1001.4 mb 0.00 in0.0 mm 0.00 in0.0 mm 0.10 in2.5 mm
05:57 PM 34.8°F1.6°C 38.7°F3.7°C 88% Calm Calm -- 29.57 in1001.4 mb 0.00 in0.0 mm 0.00 in0.0 mm 0.12 in3.0 mm
06:00 PM 34.7°F1.5°C 38.7°F3.7°C 88% Calm Calm -- 29.57 in1001.4 mb 0.00 in0.0 mm 0.00 in0.0 mm 0.12 in3.0 mm
06:03 PM 34.8°F1.6°C 38.8°F3.8°C 89% Calm Calm -- 29.56 in1001.0 mb 0.00 in0.0 mm 0.00 in0.0 mm 0.12 in3.0 mm
06:06 PM 34.8°F1.6°C 38.6°F3.7°C 89% Calm Calm -- 29.56 in1001.0 mb 0.00 in0.0 mm 0.00 in0.0 mm 0.12 in3.0 mm
06:09 PM 34.8°F1.6°C 38.6°F3.7°C 88% Calm Calm -- 29.56 in1001.0 mb 0.00 in0.0 mm 0.00 in0.0 mm 0.12 in3.0 mm
06:12 PM 34.9°F1.6°C 38.7°F3.7°C 88% Calm Calm -- 29.56 in1001.0 mb 0.00 in0.0 mm 0.00 in0.0 mm 0.12 in3.0 mm
06:15 PM 34.8°F1.6°C 38.8°F3.8°C 89% Calm Calm -- 29.56 in1001.0 mb 0.00 in0.0 mm 0.00 in0.0 mm 0.12 in3.0 mm
06:18 PM 34.9°F1.6°C 39.1°F3.9°C 89% Calm Calm -- 29.56 in1001.0 mb 0.00 in0.0 mm 0.00 in0.0 mm 0.14 in3.6 mm
06:21 PM 34.9°F1.6°C 38.9°F3.8°C 90% Calm Calm -- 29.55 in1000.7 mb 0.00 in0.0 mm 0.00 in0.0 mm 0.14 in3.6 mm
06:24 PM 35.0°F1.7°C 39.0°F3.9°C 90% Calm Calm -- 29.55 in1000.7 mb 0.00 in0.0 mm 0.00 in0.0 mm 0.14 in3.6 mm
06:27 PM 34.9°F1.6°C 38.9°F3.8°C 90% Calm Calm -- 29.54 in1000.3 mb 0.00 in0.0 mm 0.00 in0.0 mm 0.14 in3.6 mm
06:30 PM 35.0°F1.7°C 38.9°F3.8°C 90% 3.9 mph SSE6.3 kmh SSE 4.0 mph6.4 kmh 29.53 in1000.0 mb 0.00 in0.0 mm 0.00 in0.0 mm 0.14 in3.6 mm
06:33 PM 35.0°F1.7°C 38.7°F3.7°C 90% Calm Calm -- 29.53 in1000.0 mb 0.00 in0.0 mm 0.00 in0.0 mm 0.14 in3.6 mm
06:36 PM 35.0°F1.7°C 38.8°F3.8°C 91% 1.6 mph SE2.6 kmh SE 1.6 mph2.6 kmh 29.53 in1000.0 mb 0.00 in0.0 mm 0.00 in0.0 mm 0.14 in3.6 mm
06:39 PM 35.2°F1.8°C 38.7°F3.7°C 89% Calm Calm -- 29.54 in1000.3 mb 0.00 in0.0 mm 0.00 in0.0 mm 0.14 in3.6 mm
06:42 PM 35.3°F1.8°C 38.7°F3.7°C 90% 2.4 mph SSE3.9 kmh SSE 2.4 mph3.9 kmh 29.53 in1000.0 mb 0.00 in0.0 mm 0.00 in0.0 mm 0.14 in3.6 mm
06:45 PM 35.3°F1.8°C 39.2°F4.0°C 91% Calm Calm -- 29.54 in1000.3 mb 0.00 in0.0 mm 0.00 in0.0 mm 0.14 in3.6 mm
06:48 PM 35.2°F1.8°C 39.1°F3.9°C 90% Calm Calm -- 29.55 in1000.7 mb 0.00 in0.0 mm 0.00 in0.0 mm 0.14 in3.6 mm
06:51 PM 35.3°F1.8°C 39.2°F4.0°C 90% Calm Calm -- 29.54 in1000.3 mb 0.00 in0.0 mm 0.00 in0.0 mm 0.14 in3.6 mm
06:54 PM 35.2°F1.8°C 39.0°F3.9°C 89% Calm Calm -- 29.54 in1000.3 mb 0.00 in0.0 mm 0.00 in0.0 mm 0.14 in3.6 mm
06:57 PM 35.3°F1.8°C 39.5°F4.2°C 90% Calm Calm -- 29.54 in1000.3 mb 0.00 in0.0 mm 0.00 in0.0 mm 0.14 in3.6 mm
07:00 PM 35.3°F1.8°C 39.1°F3.9°C 90% Calm Calm -- 29.55 in1000.7 mb 0.00 in0.0 mm 0.00 in0.0 mm 0.14 in3.6 mm
07:03 PM 35.3°F1.8°C 39.5°F4.2°C 90% Calm Calm -- 29.54 in1000.3 mb 0.00 in0.0 mm 0.00 in0.0 mm 0.14 in3.6 mm
07:06 PM 35.5°F1.9°C 39.4°F4.1°C 89% Calm Calm -- 29.55 in1000.7 mb 0.00 in0.0 mm 0.00 in0.0 mm 0.14 in3.6 mm
07:09 PM 35.4°F1.9°C 39.4°F4.1°C 89% Calm Calm -- 29.55 in1000.7 mb 0.00 in0.0 mm 0.00 in0.0 mm 0.14 in3.6 mm
07:12 PM 35.4°F1.9°C 39.5°F4.2°C 89% Calm Calm -- 29.55 in1000.7 mb 0.00 in0.0 mm 0.00 in0.0 mm 0.16 in4.1 mm
07:15 PM 35.4°F1.9°C 39.4°F4.1°C 89% Calm Calm -- 29.55 in1000.7 mb 0.00 in0.0 mm 0.00 in0.0 mm 0.16 in4.1 mm
07:18 PM 35.3°F1.8°C 39.4°F4.1°C 89% Calm Calm -- 29.55 in1000.7 mb 0.00 in0.0 mm 0.00 in0.0 mm 0.16 in4.1 mm
07:21 PM 35.3°F1.8°C 39.4°F4.1°C 89% Calm Calm -- 29.55 in1000.7 mb 0.00 in0.0 mm 0.00 in0.0 mm 0.16 in4.1 mm
07:24 PM 35.2°F1.8°C 39.5°F4.2°C 89% Calm Calm -- 29.55 in1000.7 mb 0.00 in0.0 mm 0.00 in0.0 mm 0.16 in4.1 mm
07:27 PM 35.0°F1.7°C 39.4°F4.1°C 89% Calm Calm -- 29.56 in1001.0 mb 0.00 in0.0 mm 0.00 in0.0 mm 0.16 in4.1 mm
07:30 PM 35.2°F1.8°C 38.9°F3.8°C 88% Calm Calm -- 29.56 in1001.0 mb 0.00 in0.0 mm 0.00 in0.0 mm 0.16 in4.1 mm
07:33 PM 35.2°F1.8°C 39.4°F4.1°C 89% Calm Calm -- 29.56 in1001.0 mb 0.00 in0.0 mm 0.00 in0.0 mm 0.16 in4.1 mm
07:36 PM 35.3°F1.8°C 39.4°F4.1°C 89% Calm Calm -- 29.55 in1000.7 mb 0.00 in0.0 mm 0.00 in0.0 mm 0.16 in4.1 mm
07:39 PM 35.2°F1.8°C 39.4°F4.1°C 89% Calm Calm -- 29.55 in1000.7 mb 0.00 in0.0 mm 0.00 in0.0 mm 0.16 in4.1 mm
07:42 PM 35.2°F1.8°C 39.4°F4.1°C 89% Calm Calm -- 29.55 in1000.7 mb 0.00 in0.0 mm 0.00 in0.0 mm 0.18 in4.6 mm
07:45 PM 35.2°F1.8°C 39.4°F4.1°C 89% Calm Calm -- 29.55 in1000.7 mb 0.00 in0.0 mm 0.00 in0.0 mm 0.18 in4.6 mm
07:51 PM 35.0°F1.7°C 39.3°F4.1°C 89% Calm Calm -- 29.56 in1001.0 mb 0.00 in0.0 mm 0.00 in0.0 mm 0.18 in4.6 mm
07:54 PM 35.0°F1.7°C 39.4°F4.1°C 89% Calm Calm -- 29.56 in1001.0 mb 0.00 in0.0 mm 0.00 in0.0 mm 0.20 in5.1 mm
07:57 PM 35.0°F1.7°C 39.3°F4.1°C 89% Calm Calm -- 29.55 in1000.7 mb 0.00 in0.0 mm 0.00 in0.0 mm 0.20 in5.1 mm
08:00 PM 35.2°F1.8°C 39.2°F4.0°C 89% Calm Calm -- 29.55 in1000.7 mb 0.00 in0.0 mm 0.00 in0.0 mm 0.20 in5.1 mm
08:03 PM 35.2°F1.8°C 39.4°F4.1°C 89% Calm Calm -- 29.55 in1000.7 mb 0.00 in0.0 mm 0.00 in0.0 mm 0.20 in5.1 mm
08:06 PM 35.2°F1.8°C 39.6°F4.2°C 89% Calm Calm -- 29.55 in1000.7 mb 0.00 in0.0 mm 0.00 in0.0 mm 0.20 in5.1 mm
08:09 PM 35.2°F1.8°C 39.4°F4.1°C 89% Calm Calm -- 29.55 in1000.7 mb 0.00 in0.0 mm 0.00 in0.0 mm 0.20 in5.1 mm
08:12 PM 35.2°F1.8°C 39.6°F4.2°C 89% Calm Calm -- 29.55 in1000.7 mb 0.00 in0.0 mm 0.00 in0.0 mm 0.20 in5.1 mm
08:15 PM 35.2°F1.8°C 39.3°F4.1°C 89% Calm Calm -- 29.55 in1000.7 mb 0.00 in0.0 mm 0.00 in0.0 mm 0.20 in5.1 mm
08:18 PM 35.3°F1.8°C 39.4°F4.1°C 89% Calm Calm -- 29.55 in1000.7 mb 0.00 in0.0 mm 0.00 in0.0 mm 0.20 in5.1 mm
08:21 PM 35.3°F1.8°C 39.5°F4.2°C 89% Calm Calm -- 29.55 in1000.7 mb 0.00 in0.0 mm 0.00 in0.0 mm 0.20 in5.1 mm
08:24 PM 35.3°F1.8°C 39.4°F4.1°C 89% Calm Calm -- 29.55 in1000.7 mb 0.00 in0.0 mm 0.00 in0.0 mm 0.20 in5.1 mm
08:27 PM 35.3°F1.8°C 39.4°F4.1°C 89% Calm Calm -- 29.54 in1000.3 mb 0.00 in0.0 mm 0.00 in0.0 mm 0.20 in5.1 mm
08:30 PM 35.3°F1.8°C 39.6°F4.2°C 89% Calm Calm -- 29.55 in1000.7 mb 0.00 in0.0 mm 0.00 in0.0 mm 0.20 in5.1 mm
08:33 PM 35.3°F1.8°C 39.5°F4.2°C 89% Calm Calm -- 29.55 in1000.7 mb 0.00 in0.0 mm 0.00 in0.0 mm 0.20 in5.1 mm
08:36 PM 35.3°F1.8°C 39.6°F4.2°C 89% Calm Calm -- 29.55 in1000.7 mb 0.00 in0.0 mm 0.00 in0.0 mm 0.20 in5.1 mm
08:39 PM 35.4°F1.9°C 39.5°F4.2°C 89% Calm Calm -- 29.55 in1000.7 mb 0.00 in0.0 mm 0.00 in0.0 mm 0.20 in5.1 mm
08:42 PM 35.4°F1.9°C 39.6°F4.2°C 90% Calm Calm -- 29.55 in1000.7 mb 0.00 in0.0 mm 0.00 in0.0 mm 0.20 in5.1 mm
08:45 PM 35.5°F1.9°C 39.6°F4.2°C 89% Calm Calm -- 29.55 in1000.7 mb 0.00 in0.0 mm 0.00 in0.0 mm 0.20 in5.1 mm
08:48 PM 35.4°F1.9°C 39.8°F4.3°C 90% Calm Calm -- 29.55 in1000.7 mb 0.00 in0.0 mm 0.00 in0.0 mm 0.20 in5.1 mm
08:51 PM 35.5°F1.9°C 39.8°F4.3°C 90% Calm Calm -- 29.55 in1000.7 mb 0.00 in0.0 mm 0.00 in0.0 mm 0.22 in5.6 mm
08:54 PM 35.5°F1.9°C 39.5°F4.2°C 90% Calm Calm -- 29.55 in1000.7 mb 0.00 in0.0 mm 0.00 in0.0 mm 0.22 in5.6 mm
08:57 PM 35.5°F1.9°C 39.5°F4.2°C 90% Calm Calm -- 29.55 in1000.7 mb 0.00 in0.0 mm 0.00 in0.0 mm 0.22 in5.6 mm
09:00 PM 35.5°F1.9°C 39.6°F4.2°C 90% Calm Calm -- 29.55 in1000.7 mb 0.00 in0.0 mm 0.00 in0.0 mm 0.22 in5.6 mm
09:03 PM 35.5°F1.9°C 39.6°F4.2°C 90% Calm Calm -- 29.55 in1000.7 mb 0.00 in0.0 mm 0.00 in0.0 mm 0.22 in5.6 mm
09:06 PM 35.6°F2.0°C 39.8°F4.3°C 90% Calm Calm -- 29.55 in1000.7 mb 0.00 in0.0 mm 0.00 in0.0 mm 0.22 in5.6 mm
09:09 PM 35.6°F2.0°C 39.8°F4.3°C 90% 0.4 mph WSW0.6 kmh WSW 0.4 mph0.6 kmh 29.55 in1000.7 mb 0.00 in0.0 mm 0.00 in0.0 mm 0.22 in5.6 mm
09:12 PM 35.6°F2.0°C 39.8°F4.3°C 90% Calm Calm -- 29.56 in1001.0 mb 0.00 in0.0 mm 0.00 in0.0 mm 0.22 in5.6 mm
09:15 PM 35.6°F2.0°C 39.9°F4.4°C 90% Calm Calm -- 29.56 in1001.0 mb 0.00 in0.0 mm 0.00 in0.0 mm 0.22 in5.6 mm
09:18 PM 35.6°F2.0°C 39.8°F4.3°C 90% Calm Calm -- 29.56 in1001.0 mb 0.00 in0.0 mm 0.00 in0.0 mm 0.22 in5.6 mm
09:21 PM 35.7°F2.1°C 39.9°F4.4°C 90% Calm Calm -- 29.56 in1001.0 mb 0.00 in0.0 mm 0.00 in0.0 mm 0.22 in5.6 mm
09:24 PM 35.8°F2.1°C 39.7°F4.3°C 89% Calm Calm -- 29.56 in1001.0 mb 0.00 in0.0 mm 0.00 in0.0 mm 0.22 in5.6 mm
09:27 PM 35.7°F2.1°C 39.8°F4.3°C 90% Calm Calm -- 29.57 in1001.4 mb 0.00 in0.0 mm 0.00 in0.0 mm 0.22 in5.6 mm
09:30 PM 35.8°F2.1°C 39.8°F4.3°C 90% Calm Calm -- 29.57 in1001.4 mb 0.00 in0.0 mm 0.00 in0.0 mm 0.22 in5.6 mm
09:33 PM 36.1°F2.3°C 40.0°F4.4°C 90% Calm Calm -- 29.57 in1001.4 mb 0.00 in0.0 mm 0.00 in0.0 mm 0.22 in5.6 mm
09:36 PM 36.2°F2.3°C 39.9°F4.4°C 90% Calm Calm -- 29.57 in1001.4 mb 0.00 in0.0 mm 0.00 in0.0 mm 0.22 in5.6 mm
09:39 PM 36.2°F2.3°C 40.3°F4.6°C 91% 1.6 mph W2.6 kmh W 1.6 mph2.6 kmh 29.57 in1001.4 mb 0.00 in0.0 mm 0.00 in0.0 mm 0.22 in5.6 mm
09:42 PM 36.4°F2.4°C 40.3°F4.6°C 91% Calm Calm -- 29.57 in1001.4 mb 0.00 in0.0 mm 0.00 in0.0 mm 0.22 in5.6 mm
09:45 PM 36.4°F2.4°C 40.2°F4.6°C 91% 0.8 mph W1.3 kmh W 0.8 mph1.3 kmh 29.57 in1001.4 mb 0.00 in0.0 mm 0.00 in0.0 mm 0.22 in5.6 mm
09:48 PM 36.5°F2.5°C 40.0°F4.4°C 90% Calm Calm -- 29.57 in1001.4 mb 0.00 in0.0 mm 0.00 in0.0 mm 0.22 in5.6 mm
09:51 PM 36.5°F2.5°C 40.3°F4.6°C 91% Calm Calm -- 29.57 in1001.4 mb 0.00 in0.0 mm 0.00 in0.0 mm 0.22 in5.6 mm
09:54 PM 36.6°F2.6°C 40.4°F4.7°C 91% 2.0 mph SW3.2 kmh SW 2.0 mph3.2 kmh 29.57 in1001.4 mb 0.00 in0.0 mm 0.00 in0.0 mm 0.22 in5.6 mm
09:57 PM 36.6°F2.6°C 40.5°F4.7°C 91% Calm Calm -- 29.57 in1001.4 mb 0.00 in0.0 mm 0.00 in0.0 mm 0.22 in5.6 mm
10:00 PM 36.5°F2.5°C 40.3°F4.6°C 91% Calm Calm -- 29.57 in1001.4 mb 0.00 in0.0 mm 0.00 in0.0 mm 0.22 in5.6 mm
10:03 PM 36.6°F2.6°C 40.7°F4.8°C 91% Calm Calm -- 29.57 in1001.4 mb 0.00 in0.0 mm 0.00 in0.0 mm 0.22 in5.6 mm
10:06 PM 36.7°F2.6°C 40.4°F4.7°C 91% Calm Calm -- 29.58 in1001.7 mb 0.00 in0.0 mm 0.00 in0.0 mm 0.22 in5.6 mm
10:09 PM 36.7°F2.6°C 40.7°F4.8°C 91% Calm Calm -- 29.58 in1001.7 mb 0.00 in0.0 mm 0.00 in0.0 mm 0.22 in5.6 mm
10:12 PM 36.7°F2.6°C 40.7°F4.8°C 91% Calm Calm -- 29.58 in1001.7 mb 0.00 in0.0 mm 0.00 in0.0 mm 0.22 in5.6 mm
10:15 PM 36.8°F2.7°C 40.7°F4.8°C 91% Calm Calm -- 29.58 in1001.7 mb 0.00 in0.0 mm 0.00 in0.0 mm 0.22 in5.6 mm
10:18 PM 36.7°F2.6°C 40.6°F4.8°C 91% 1.2 mph W1.9 kmh W 1.2 mph1.9 kmh 29.59 in1002.0 mb 0.00 in0.0 mm 0.00 in0.0 mm 0.22 in5.6 mm
10:21 PM 36.7°F2.6°C 40.8°F4.9°C 91% Calm Calm -- 29.59 in1002.0 mb 0.00 in0.0 mm 0.00 in0.0 mm 0.22 in5.6 mm
10:24 PM 36.7°F2.6°C 40.8°F4.9°C 91% Calm Calm -- 29.59 in1002.0 mb 0.00 in0.0 mm 0.00 in0.0 mm 0.22 in5.6 mm
10:27 PM 36.8°F2.7°C 40.7°F4.8°C 91% Calm Calm -- 29.59 in1002.0 mb 0.00 in0.0 mm 0.00 in0.0 mm 0.22 in5.6 mm
10:30 PM 36.8°F2.7°C 40.8°F4.9°C 91% 2.7 mph W4.3 kmh W 2.9 mph4.7 kmh 29.59 in1002.0 mb 0.00 in0.0 mm 0.00 in0.0 mm 0.22 in5.6 mm
10:33 PM 36.8°F2.7°C 40.8°F4.9°C 91% Calm Calm -- 29.59 in1002.0 mb 0.00 in0.0 mm 0.00 in0.0 mm 0.22 in5.6 mm
10:36 PM 36.8°F2.7°C 40.9°F4.9°C 91% Calm Calm -- 29.59 in1002.0 mb 0.00 in0.0 mm 0.00 in0.0 mm 0.22 in5.6 mm
10:39 PM 36.8°F2.7°C 40.8°F4.9°C 91% 5.2 mph W8.4 kmh W 5.3 mph8.5 kmh 29.59 in1002.0 mb 0.00 in0.0 mm 0.00 in0.0 mm 0.22 in5.6 mm
10:42 PM 36.8°F2.7°C 40.7°F4.8°C 91% Calm Calm -- 29.59 in1002.0 mb 0.00 in0.0 mm 0.00 in0.0 mm 0.22 in5.6 mm
10:45 PM 36.8°F2.7°C 40.9°F4.9°C 91% Calm Calm -- 29.59 in1002.0 mb 0.00 in0.0 mm 0.00 in0.0 mm 0.22 in5.6 mm
10:48 PM 37.0°F2.8°C 40.7°F4.8°C 91% Calm Calm -- 29.59 in1002.0 mb 0.00 in0.0 mm 0.00 in0.0 mm 0.22 in5.6 mm
10:51 PM 37.0°F2.8°C 40.8°F4.9°C 91% Calm Calm -- 29.59 in1002.0 mb 0.00 in0.0 mm 0.00 in0.0 mm 0.22 in5.6 mm
10:54 PM 37.0°F2.8°C 40.8°F4.9°C 91% Calm Calm -- 29.59 in1002.0 mb 0.00 in0.0 mm 0.00 in0.0 mm 0.22 in5.6 mm
10:57 PM 36.8°F2.7°C 40.4°F4.7°C 90% Calm Calm -- 29.59 in1002.0 mb 0.00 in0.0 mm 0.00 in0.0 mm 0.22 in5.6 mm
11:00 PM 37.0°F2.8°C 40.8°F4.9°C 91% Calm Calm -- 29.59 in1002.0 mb 0.00 in0.0 mm 0.00 in0.0 mm 0.22 in5.6 mm
11:03 PM 36.8°F2.7°C 40.9°F4.9°C 91% Calm Calm -- 29.59 in1002.0 mb 0.00 in0.0 mm 0.00 in0.0 mm 0.22 in5.6 mm
11:06 PM 36.8°F2.7°C 41.0°F5.0°C 91% Calm Calm -- 29.59 in1002.0 mb 0.00 in0.0 mm 0.00 in0.0 mm 0.22 in5.6 mm
11:09 PM 36.8°F2.7°C 40.8°F4.9°C 91% Calm Calm -- 29.60 in1002.4 mb 0.00 in0.0 mm 0.00 in0.0 mm 0.22 in5.6 mm
11:12 PM 36.8°F2.7°C 40.8°F4.9°C 91% Calm Calm -- 29.59 in1002.0 mb 0.00 in0.0 mm 0.00 in0.0 mm 0.22 in5.6 mm
11:15 PM 36.8°F2.7°C 40.5°F4.7°C 89% Calm Calm -- 29.59 in1002.0 mb 0.00 in0.0 mm 0.00 in0.0 mm 0.22 in5.6 mm
11:18 PM 36.8°F2.7°C 41.0°F5.0°C 91% Calm Calm -- 29.59 in1002.0 mb 0.00 in0.0 mm 0.00 in0.0 mm 0.22 in5.6 mm
11:21 PM 37.0°F2.8°C 40.8°F4.9°C 90% Calm Calm -- 29.59 in1002.0 mb 0.00 in0.0 mm 0.00 in0.0 mm 0.22 in5.6 mm
11:24 PM 36.8°F2.7°C 41.0°F5.0°C 91% Calm Calm -- 29.59 in1002.0 mb 0.00 in0.0 mm 0.00 in0.0 mm 0.22 in5.6 mm
11:27 PM 36.8°F2.7°C 40.9°F4.9°C 91% Calm Calm -- 29.59 in1002.0 mb 0.00 in0.0 mm 0.00 in0.0 mm 0.22 in5.6 mm
11:30 PM 36.8°F2.7°C 40.9°F4.9°C 91% Calm Calm -- 29.60 in1002.4 mb 0.00 in0.0 mm 0.00 in0.0 mm 0.22 in5.6 mm
11:33 PM 36.7°F2.6°C 41.0°F5.0°C 91% Calm Calm -- 29.59 in1002.0 mb 0.00 in0.0 mm 0.00 in0.0 mm 0.22 in5.6 mm
11:36 PM 36.7°F2.6°C 40.9°F4.9°C 90% Calm Calm -- 29.59 in1002.0 mb 0.00 in0.0 mm 0.00 in0.0 mm 0.22 in5.6 mm
11:39 PM 36.7°F2.6°C 41.1°F5.1°C 91% Calm Calm -- 29.59 in1002.0 mb 0.00 in0.0 mm 0.00 in0.0 mm 0.22 in5.6 mm
11:42 PM 36.8°F2.7°C 41.0°F5.0°C 91% Calm Calm -- 29.59 in1002.0 mb 0.00 in0.0 mm 0.00 in0.0 mm 0.22 in5.6 mm
11:48 PM 36.8°F2.7°C 41.0°F5.0°C 91% Calm Calm -- 29.59 in1002.0 mb 0.00 in0.0 mm 0.00 in0.0 mm 0.22 in5.6 mm
11:51 PM 36.8°F2.7°C 41.1°F5.1°C 91% Calm Calm -- 29.59 in1002.0 mb 0.00 in0.0 mm 0.00 in0.0 mm 0.22 in5.6 mm
11:54 PM 36.8°F2.7°C 41.0°F5.0°C 90% Calm Calm -- 29.60 in1002.4 mb 0.00 in0.0 mm 0.00 in0.0 mm 0.22 in5.6 mm
11:57 PM 36.7°F2.6°C 41.1°F5.1°C 91% Calm Calm -- 29.60 in1002.4 mb 0.00 in0.0 mm 0.00 in0.0 mm 0.22 in5.6 mm